<?xml version="1.0" encoding="UTF-8" standalone="no" ?>
<gpx xmlns="http://www.topografix.com/GPX/1/1" xmlns:xsi="http://www.w3.org/2001/XMLSchema-instance" xsi:schemaLocation="http://www.topografix.com/GPX/1/1 http://www.topografix.com/GPX/1/1/gpx.xsd" version="1.1" creator="VisuGPX - https://www.visugpx.com">
  <metadata>
    <name>Tête des Lindars</name>
    <desc><![CDATA[Dernière randonnée à partir de Flaine avant le re-con-finalement
]]></desc>
  </metadata>
  <trk>
    <name><![CDATA[2021-04-01 07:45:57]]></name>
    <trkseg>
      <trkpt lat="46.00341" lon="6.69094">
        <ele>1503.64</ele>
        <time>2021-03-31T07:50:13Z</time>
      </trkpt>
      <trkpt lat="46.0035" lon="6.69097">
        <ele>1504.6</ele>
        <time>2021-03-31T07:50:25Z</time>
      </trkpt>
      <trkpt lat="46.00354" lon="6.69099">
        <ele>1504.6</ele>
        <time>2021-03-31T07:50:31Z</time>
      </trkpt>
      <trkpt lat="46.00358" lon="6.69115">
        <ele>1505.56</ele>
        <time>2021-03-31T07:50:45Z</time>
      </trkpt>
      <trkpt lat="46.00358" lon="6.69136">
        <ele>1506.52</ele>
        <time>2021-03-31T07:50:59Z</time>
      </trkpt>
      <trkpt lat="46.00404" lon="6.69152">
        <ele>1507.48</ele>
        <time>2021-03-31T07:51:13Z</time>
      </trkpt>
      <trkpt lat="46.00395" lon="6.6915">
        <ele>1509.41</ele>
        <time>2021-03-31T07:51:28Z</time>
      </trkpt>
      <trkpt lat="46.00388" lon="6.6916">
        <ele>1510.85</ele>
        <time>2021-03-31T07:51:43Z</time>
      </trkpt>
      <trkpt lat="46.00386" lon="6.69162">
        <ele>1510.85</ele>
        <time>2021-03-31T07:51:56Z</time>
      </trkpt>
      <trkpt lat="46.00388" lon="6.69162">
        <ele>1510.85</ele>
        <time>2021-03-31T07:52:16Z</time>
      </trkpt>
      <trkpt lat="46.0038" lon="6.69164">
        <ele>1510.85</ele>
        <time>2021-03-31T07:52:41Z</time>
      </trkpt>
      <trkpt lat="46.00382" lon="6.69166">
        <ele>1516.62</ele>
        <time>2021-03-31T07:52:57Z</time>
      </trkpt>
      <trkpt lat="46.00382" lon="6.69166">
        <ele>1521.42</ele>
        <time>2021-03-31T07:52:59Z</time>
      </trkpt>
      <trkpt lat="46.00381" lon="6.69166">
        <ele>1526.23</ele>
        <time>2021-03-31T07:53:01Z</time>
      </trkpt>
      <trkpt lat="46.00381" lon="6.69166">
        <ele>1530.56</ele>
        <time>2021-03-31T07:53:03Z</time>
      </trkpt>
      <trkpt lat="46.00381" lon="6.69167">
        <ele>1534.88</ele>
        <time>2021-03-31T07:53:05Z</time>
      </trkpt>
      <trkpt lat="46.00383" lon="6.69167">
        <ele>1539.21</ele>
        <time>2021-03-31T07:53:07Z</time>
      </trkpt>
      <trkpt lat="46.00384" lon="6.69168">
        <ele>1543.05</ele>
        <time>2021-03-31T07:53:09Z</time>
      </trkpt>
      <trkpt lat="46.00384" lon="6.69168">
        <ele>1546.9</ele>
        <time>2021-03-31T07:53:11Z</time>
      </trkpt>
      <trkpt lat="46.00384" lon="6.69168">
        <ele>1550.74</ele>
        <time>2021-03-31T07:53:12Z</time>
      </trkpt>
      <trkpt lat="46.00384" lon="6.69168">
        <ele>1550.74</ele>
        <time>2021-03-31T07:53:13Z</time>
      </trkpt>
      <trkpt lat="46.00384" lon="6.69168">
        <ele>1554.11</ele>
        <time>2021-03-31T07:53:14Z</time>
      </trkpt>
      <trkpt lat="46.00384" lon="6.69167">
        <ele>1554.11</ele>
        <time>2021-03-31T07:53:15Z</time>
      </trkpt>
      <trkpt lat="46.00384" lon="6.69167">
        <ele>1557.47</ele>
        <time>2021-03-31T07:53:17Z</time>
      </trkpt>
      <trkpt lat="46.00385" lon="6.69166">
        <ele>1561.8</ele>
        <time>2021-03-31T07:53:20Z</time>
      </trkpt>
      <trkpt lat="46.00389" lon="6.69168">
        <ele>1565.16</ele>
        <time>2021-03-31T07:53:23Z</time>
      </trkpt>
      <trkpt lat="46.0039" lon="6.69169">
        <ele>1569.49</ele>
        <time>2021-03-31T07:53:27Z</time>
      </trkpt>
      <trkpt lat="46.00389" lon="6.69169">
        <ele>1572.37</ele>
        <time>2021-03-31T07:53:31Z</time>
      </trkpt>
      <trkpt lat="46.00389" lon="6.6917">
        <ele>1575.74</ele>
        <time>2021-03-31T07:53:36Z</time>
      </trkpt>
      <trkpt lat="46.00389" lon="6.69169">
        <ele>1578.62</ele>
        <time>2021-03-31T07:53:43Z</time>
      </trkpt>
      <trkpt lat="46.00389" lon="6.69172">
        <ele>1581.99</ele>
        <time>2021-03-31T07:53:55Z</time>
      </trkpt>
      <trkpt lat="46.00386" lon="6.69175">
        <ele>1584.39</ele>
        <time>2021-03-31T07:54:17Z</time>
      </trkpt>
      <trkpt lat="46.00381" lon="6.69182">
        <ele>1583.91</ele>
        <time>2021-03-31T07:54:36Z</time>
      </trkpt>
      <trkpt lat="46.00367" lon="6.69197">
        <ele>1583.91</ele>
        <time>2021-03-31T07:54:51Z</time>
      </trkpt>
      <trkpt lat="46.0035" lon="6.69213">
        <ele>1583.91</ele>
        <time>2021-03-31T07:55:07Z</time>
      </trkpt>
      <trkpt lat="46.00339" lon="6.69235">
        <ele>1584.39</ele>
        <time>2021-03-31T07:55:23Z</time>
      </trkpt>
      <trkpt lat="46.00338" lon="6.69238">
        <ele>1584.39</ele>
        <time>2021-03-31T07:55:25Z</time>
      </trkpt>
      <trkpt lat="46.00329" lon="6.69258">
        <ele>1585.35</ele>
        <time>2021-03-31T07:55:42Z</time>
      </trkpt>
      <trkpt lat="46.00323" lon="6.69279">
        <ele>1586.31</ele>
        <time>2021-03-31T07:55:56Z</time>
      </trkpt>
      <trkpt lat="46.00319" lon="6.69292">
        <ele>1586.31</ele>
        <time>2021-03-31T07:56:05Z</time>
      </trkpt>
      <trkpt lat="46.00318" lon="6.69299">
        <ele>1586.79</ele>
        <time>2021-03-31T07:56:09Z</time>
      </trkpt>
      <trkpt lat="46.00316" lon="6.69319">
        <ele>1587.27</ele>
        <time>2021-03-31T07:56:23Z</time>
      </trkpt>
      <trkpt lat="46.00312" lon="6.69338">
        <ele>1587.27</ele>
        <time>2021-03-31T07:56:37Z</time>
      </trkpt>
      <trkpt lat="46.00307" lon="6.69358">
        <ele>1588.24</ele>
        <time>2021-03-31T07:56:53Z</time>
      </trkpt>
      <trkpt lat="46.00305" lon="6.69376">
        <ele>1588.72</ele>
        <time>2021-03-31T07:57:07Z</time>
      </trkpt>
      <trkpt lat="46.00301" lon="6.69394">
        <ele>1589.68</ele>
        <time>2021-03-31T07:57:21Z</time>
      </trkpt>
      <trkpt lat="46.003" lon="6.6941">
        <ele>1590.64</ele>
        <time>2021-03-31T07:57:35Z</time>
      </trkpt>
      <trkpt lat="46.00292" lon="6.69424">
        <ele>1591.6</ele>
        <time>2021-03-31T07:57:50Z</time>
      </trkpt>
      <trkpt lat="46.00286" lon="6.69441">
        <ele>1591.6</ele>
        <time>2021-03-31T07:58:04Z</time>
      </trkpt>
      <trkpt lat="46.0028" lon="6.69464">
        <ele>1592.08</ele>
        <time>2021-03-31T07:58:20Z</time>
      </trkpt>
      <trkpt lat="46.0028" lon="6.69491">
        <ele>1592.56</ele>
        <time>2021-03-31T07:58:36Z</time>
      </trkpt>
      <trkpt lat="46.0028" lon="6.69515">
        <ele>1593.52</ele>
        <time>2021-03-31T07:58:52Z</time>
      </trkpt>
      <trkpt lat="46.00282" lon="6.69534">
        <ele>1594.48</ele>
        <time>2021-03-31T07:59:05Z</time>
      </trkpt>
      <trkpt lat="46.00283" lon="6.69558">
        <ele>1595.45</ele>
        <time>2021-03-31T07:59:21Z</time>
      </trkpt>
      <trkpt lat="46.00284" lon="6.69577">
        <ele>1596.89</ele>
        <time>2021-03-31T07:59:35Z</time>
      </trkpt>
      <trkpt lat="46.00285" lon="6.69594">
        <ele>1599.29</ele>
        <time>2021-03-31T07:59:49Z</time>
      </trkpt>
      <trkpt lat="46.00285" lon="6.69611">
        <ele>1601.69</ele>
        <time>2021-03-31T08:00:03Z</time>
      </trkpt>
      <trkpt lat="46.00285" lon="6.69628">
        <ele>1602.66</ele>
        <time>2021-03-31T08:00:16Z</time>
      </trkpt>
      <trkpt lat="46.00282" lon="6.69644">
        <ele>1605.06</ele>
        <time>2021-03-31T08:00:31Z</time>
      </trkpt>
      <trkpt lat="46.00278" lon="6.69658">
        <ele>1606.98</ele>
        <time>2021-03-31T08:00:45Z</time>
      </trkpt>
      <trkpt lat="46.00274" lon="6.69674">
        <ele>1608.9</ele>
        <time>2021-03-31T08:01:00Z</time>
      </trkpt>
      <trkpt lat="46.00268" lon="6.6969">
        <ele>1610.83</ele>
        <time>2021-03-31T08:01:15Z</time>
      </trkpt>
      <trkpt lat="46.0026" lon="6.69707">
        <ele>1612.27</ele>
        <time>2021-03-31T08:01:30Z</time>
      </trkpt>
      <trkpt lat="46.00251" lon="6.6972">
        <ele>1614.19</ele>
        <time>2021-03-31T08:01:46Z</time>
      </trkpt>
      <trkpt lat="46.0024" lon="6.69729">
        <ele>1616.11</ele>
        <time>2021-03-31T08:02:01Z</time>
      </trkpt>
      <trkpt lat="46.00227" lon="6.69737">
        <ele>1617.56</ele>
        <time>2021-03-31T08:02:17Z</time>
      </trkpt>
      <trkpt lat="46.0022" lon="6.69738">
        <ele>1619</ele>
        <time>2021-03-31T08:02:31Z</time>
      </trkpt>
      <trkpt lat="46.00211" lon="6.69743">
        <ele>1619.96</ele>
        <time>2021-03-31T08:02:47Z</time>
      </trkpt>
      <trkpt lat="46.00201" lon="6.69745">
        <ele>1622.84</ele>
        <time>2021-03-31T08:03:03Z</time>
      </trkpt>
      <trkpt lat="46.00191" lon="6.69752">
        <ele>1626.21</ele>
        <time>2021-03-31T08:03:18Z</time>
      </trkpt>
      <trkpt lat="46.00183" lon="6.69753">
        <ele>1628.13</ele>
        <time>2021-03-31T08:03:33Z</time>
      </trkpt>
      <trkpt lat="46.00174" lon="6.69758">
        <ele>1631.01</ele>
        <time>2021-03-31T08:03:46Z</time>
      </trkpt>
      <trkpt lat="46.00165" lon="6.69768">
        <ele>1633.9</ele>
        <time>2021-03-31T08:04:01Z</time>
      </trkpt>
      <trkpt lat="46.00155" lon="6.69778">
        <ele>1635.82</ele>
        <time>2021-03-31T08:04:16Z</time>
      </trkpt>
      <trkpt lat="46.00146" lon="6.69784">
        <ele>1637.74</ele>
        <time>2021-03-31T08:04:30Z</time>
      </trkpt>
      <trkpt lat="46.00136" lon="6.69791">
        <ele>1639.67</ele>
        <time>2021-03-31T08:04:44Z</time>
      </trkpt>
      <trkpt lat="46.00127" lon="6.69803">
        <ele>1641.59</ele>
        <time>2021-03-31T08:05:01Z</time>
      </trkpt>
      <trkpt lat="46.00117" lon="6.69808">
        <ele>1643.51</ele>
        <time>2021-03-31T08:05:16Z</time>
      </trkpt>
      <trkpt lat="46.00109" lon="6.69818">
        <ele>1646.4</ele>
        <time>2021-03-31T08:05:32Z</time>
      </trkpt>
      <trkpt lat="46.001" lon="6.69832">
        <ele>1648.32</ele>
        <time>2021-03-31T08:05:49Z</time>
      </trkpt>
      <trkpt lat="46.00092" lon="6.69846">
        <ele>1650.72</ele>
        <time>2021-03-31T08:06:07Z</time>
      </trkpt>
      <trkpt lat="46.00082" lon="6.69858">
        <ele>1652.64</ele>
        <time>2021-03-31T08:06:24Z</time>
      </trkpt>
      <trkpt lat="46.00072" lon="6.69867">
        <ele>1654.57</ele>
        <time>2021-03-31T08:06:39Z</time>
      </trkpt>
      <trkpt lat="46.00061" lon="6.69876">
        <ele>1656.01</ele>
        <time>2021-03-31T08:06:54Z</time>
      </trkpt>
      <trkpt lat="46.00051" lon="6.69881">
        <ele>1657.93</ele>
        <time>2021-03-31T08:07:09Z</time>
      </trkpt>
      <trkpt lat="46.00041" lon="6.69889">
        <ele>1658.89</ele>
        <time>2021-03-31T08:07:23Z</time>
      </trkpt>
      <trkpt lat="46.00036" lon="6.69891">
        <ele>1659.85</ele>
        <time>2021-03-31T08:07:29Z</time>
      </trkpt>
      <trkpt lat="46.0003" lon="6.69894">
        <ele>1659.85</ele>
        <time>2021-03-31T08:07:35Z</time>
      </trkpt>
      <trkpt lat="46.00024" lon="6.69898">
        <ele>1660.81</ele>
        <time>2021-03-31T08:07:42Z</time>
      </trkpt>
      <trkpt lat="46.0001" lon="6.69907">
        <ele>1661.78</ele>
        <time>2021-03-31T08:07:58Z</time>
      </trkpt>
      <trkpt lat="45.99999" lon="6.69913">
        <ele>1663.7</ele>
        <time>2021-03-31T08:08:12Z</time>
      </trkpt>
      <trkpt lat="45.9999" lon="6.6992">
        <ele>1666.1</ele>
        <time>2021-03-31T08:08:26Z</time>
      </trkpt>
      <trkpt lat="45.99981" lon="6.69927">
        <ele>1668.02</ele>
        <time>2021-03-31T08:08:40Z</time>
      </trkpt>
      <trkpt lat="45.9997" lon="6.69933">
        <ele>1669.95</ele>
        <time>2021-03-31T08:08:56Z</time>
      </trkpt>
      <trkpt lat="45.99962" lon="6.69938">
        <ele>1672.35</ele>
        <time>2021-03-31T08:09:10Z</time>
      </trkpt>
      <trkpt lat="45.99952" lon="6.69943">
        <ele>1675.23</ele>
        <time>2021-03-31T08:09:26Z</time>
      </trkpt>
      <trkpt lat="45.99943" lon="6.69945">
        <ele>1677.64</ele>
        <time>2021-03-31T08:09:40Z</time>
      </trkpt>
      <trkpt lat="45.99935" lon="6.69945">
        <ele>1680.04</ele>
        <time>2021-03-31T08:09:55Z</time>
      </trkpt>
      <trkpt lat="45.99926" lon="6.69942">
        <ele>1682.93</ele>
        <time>2021-03-31T08:10:11Z</time>
      </trkpt>
      <trkpt lat="45.99921" lon="6.69937">
        <ele>1684.85</ele>
        <time>2021-03-31T08:10:28Z</time>
      </trkpt>
      <trkpt lat="45.99921" lon="6.69925">
        <ele>1687.25</ele>
        <time>2021-03-31T08:10:43Z</time>
      </trkpt>
      <trkpt lat="45.99915" lon="6.69913">
        <ele>1689.17</ele>
        <time>2021-03-31T08:10:59Z</time>
      </trkpt>
      <trkpt lat="45.99906" lon="6.699">
        <ele>1691.1</ele>
        <time>2021-03-31T08:11:15Z</time>
      </trkpt>
      <trkpt lat="45.99901" lon="6.6989">
        <ele>1693.02</ele>
        <time>2021-03-31T08:11:29Z</time>
      </trkpt>
      <trkpt lat="45.99895" lon="6.69878">
        <ele>1694.94</ele>
        <time>2021-03-31T08:11:44Z</time>
      </trkpt>
      <trkpt lat="45.99888" lon="6.69868">
        <ele>1697.83</ele>
        <time>2021-03-31T08:12:00Z</time>
      </trkpt>
      <trkpt lat="45.99886" lon="6.69859">
        <ele>1700.23</ele>
        <time>2021-03-31T08:12:15Z</time>
      </trkpt>
      <trkpt lat="45.99886" lon="6.6985">
        <ele>1702.15</ele>
        <time>2021-03-31T08:12:30Z</time>
      </trkpt>
      <trkpt lat="45.99883" lon="6.69841">
        <ele>1703.59</ele>
        <time>2021-03-31T08:12:43Z</time>
      </trkpt>
      <trkpt lat="45.99876" lon="6.69834">
        <ele>1706</ele>
        <time>2021-03-31T08:12:58Z</time>
      </trkpt>
      <trkpt lat="45.99872" lon="6.69828">
        <ele>1707.92</ele>
        <time>2021-03-31T08:13:14Z</time>
      </trkpt>
      <trkpt lat="45.99874" lon="6.69815">
        <ele>1710.32</ele>
        <time>2021-03-31T08:13:31Z</time>
      </trkpt>
      <trkpt lat="45.99873" lon="6.69806">
        <ele>1713.21</ele>
        <time>2021-03-31T08:13:47Z</time>
      </trkpt>
      <trkpt lat="45.99863" lon="6.69799">
        <ele>1715.61</ele>
        <time>2021-03-31T08:14:04Z</time>
      </trkpt>
      <trkpt lat="45.99864" lon="6.69787">
        <ele>1718.97</ele>
        <time>2021-03-31T08:14:20Z</time>
      </trkpt>
      <trkpt lat="45.99858" lon="6.69772">
        <ele>1719.94</ele>
        <time>2021-03-31T08:14:37Z</time>
      </trkpt>
      <trkpt lat="45.99855" lon="6.69758">
        <ele>1722.34</ele>
        <time>2021-03-31T08:14:51Z</time>
      </trkpt>
      <trkpt lat="45.9985" lon="6.69749">
        <ele>1724.74</ele>
        <time>2021-03-31T08:15:06Z</time>
      </trkpt>
      <trkpt lat="45.99849" lon="6.69735">
        <ele>1727.63</ele>
        <time>2021-03-31T08:15:23Z</time>
      </trkpt>
      <trkpt lat="45.99841" lon="6.69728">
        <ele>1730.03</ele>
        <time>2021-03-31T08:15:38Z</time>
      </trkpt>
      <trkpt lat="45.99839" lon="6.69719">
        <ele>1732.43</ele>
        <time>2021-03-31T08:15:52Z</time>
      </trkpt>
      <trkpt lat="45.99835" lon="6.69709">
        <ele>1734.84</ele>
        <time>2021-03-31T08:16:06Z</time>
      </trkpt>
      <trkpt lat="45.99831" lon="6.697">
        <ele>1737.72</ele>
        <time>2021-03-31T08:16:22Z</time>
      </trkpt>
      <trkpt lat="45.99823" lon="6.69696">
        <ele>1739.64</ele>
        <time>2021-03-31T08:16:39Z</time>
      </trkpt>
      <trkpt lat="45.9982" lon="6.69685">
        <ele>1742.53</ele>
        <time>2021-03-31T08:16:55Z</time>
      </trkpt>
      <trkpt lat="45.99818" lon="6.69675">
        <ele>1745.41</ele>
        <time>2021-03-31T08:17:12Z</time>
      </trkpt>
      <trkpt lat="45.99809" lon="6.69667">
        <ele>1747.81</ele>
        <time>2021-03-31T08:17:27Z</time>
      </trkpt>
      <trkpt lat="45.99804" lon="6.6966">
        <ele>1750.7</ele>
        <time>2021-03-31T08:17:42Z</time>
      </trkpt>
      <trkpt lat="45.99805" lon="6.69647">
        <ele>1753.58</ele>
        <time>2021-03-31T08:17:58Z</time>
      </trkpt>
      <trkpt lat="45.99805" lon="6.69633">
        <ele>1756.47</ele>
        <time>2021-03-31T08:18:16Z</time>
      </trkpt>
      <trkpt lat="45.99802" lon="6.69621">
        <ele>1758.87</ele>
        <time>2021-03-31T08:18:32Z</time>
      </trkpt>
      <trkpt lat="45.99798" lon="6.69607">
        <ele>1761.27</ele>
        <time>2021-03-31T08:18:48Z</time>
      </trkpt>
      <trkpt lat="45.99794" lon="6.69594">
        <ele>1763.68</ele>
        <time>2021-03-31T08:19:03Z</time>
      </trkpt>
      <trkpt lat="45.99791" lon="6.69581">
        <ele>1765.6</ele>
        <time>2021-03-31T08:19:19Z</time>
      </trkpt>
      <trkpt lat="45.99787" lon="6.69568">
        <ele>1768</ele>
        <time>2021-03-31T08:19:34Z</time>
      </trkpt>
      <trkpt lat="45.99785" lon="6.69565">
        <ele>1768.96</ele>
        <time>2021-03-31T08:19:50Z</time>
      </trkpt>
      <trkpt lat="45.99785" lon="6.69564">
        <ele>1769.44</ele>
        <time>2021-03-31T08:20:07Z</time>
      </trkpt>
      <trkpt lat="45.99785" lon="6.69564">
        <ele>1769.44</ele>
        <time>2021-03-31T08:20:21Z</time>
      </trkpt>
      <trkpt lat="45.99785" lon="6.69564">
        <ele>1769.44</ele>
        <time>2021-03-31T08:20:44Z</time>
      </trkpt>
      <trkpt lat="45.99783" lon="6.69564">
        <ele>1769.44</ele>
        <time>2021-03-31T08:21:02Z</time>
      </trkpt>
      <trkpt lat="45.99781" lon="6.69559">
        <ele>1769.44</ele>
        <time>2021-03-31T08:21:26Z</time>
      </trkpt>
      <trkpt lat="45.99774" lon="6.69541">
        <ele>1772.81</ele>
        <time>2021-03-31T08:21:44Z</time>
      </trkpt>
      <trkpt lat="45.99766" lon="6.69526">
        <ele>1774.25</ele>
        <time>2021-03-31T08:22:02Z</time>
      </trkpt>
      <trkpt lat="45.9976" lon="6.69512">
        <ele>1776.17</ele>
        <time>2021-03-31T08:22:17Z</time>
      </trkpt>
      <trkpt lat="45.99753" lon="6.69501">
        <ele>1778.1</ele>
        <time>2021-03-31T08:22:31Z</time>
      </trkpt>
      <trkpt lat="45.99747" lon="6.69486">
        <ele>1780.5</ele>
        <time>2021-03-31T08:22:46Z</time>
      </trkpt>
      <trkpt lat="45.99741" lon="6.69476">
        <ele>1782.9</ele>
        <time>2021-03-31T08:23:01Z</time>
      </trkpt>
      <trkpt lat="45.99736" lon="6.69464">
        <ele>1785.79</ele>
        <time>2021-03-31T08:23:18Z</time>
      </trkpt>
      <trkpt lat="45.99732" lon="6.69453">
        <ele>1788.67</ele>
        <time>2021-03-31T08:23:35Z</time>
      </trkpt>
      <trkpt lat="45.99726" lon="6.69443">
        <ele>1791.07</ele>
        <time>2021-03-31T08:23:49Z</time>
      </trkpt>
      <trkpt lat="45.9972" lon="6.69433">
        <ele>1793.96</ele>
        <time>2021-03-31T08:24:06Z</time>
      </trkpt>
      <trkpt lat="45.99711" lon="6.69426">
        <ele>1795.88</ele>
        <time>2021-03-31T08:24:21Z</time>
      </trkpt>
      <trkpt lat="45.99701" lon="6.6942">
        <ele>1798.28</ele>
        <time>2021-03-31T08:24:37Z</time>
      </trkpt>
      <trkpt lat="45.99692" lon="6.69419">
        <ele>1800.21</ele>
        <time>2021-03-31T08:24:52Z</time>
      </trkpt>
      <trkpt lat="45.99684" lon="6.69416">
        <ele>1802.13</ele>
        <time>2021-03-31T08:25:05Z</time>
      </trkpt>
      <trkpt lat="45.99676" lon="6.6941">
        <ele>1804.05</ele>
        <time>2021-03-31T08:25:19Z</time>
      </trkpt>
      <trkpt lat="45.99669" lon="6.69401">
        <ele>1805.97</ele>
        <time>2021-03-31T08:25:33Z</time>
      </trkpt>
      <trkpt lat="45.99659" lon="6.69393">
        <ele>1808.38</ele>
        <time>2021-03-31T08:25:48Z</time>
      </trkpt>
      <trkpt lat="45.99649" lon="6.69388">
        <ele>1810.3</ele>
        <time>2021-03-31T08:26:03Z</time>
      </trkpt>
      <trkpt lat="45.99639" lon="6.69388">
        <ele>1811.74</ele>
        <time>2021-03-31T08:26:16Z</time>
      </trkpt>
      <trkpt lat="45.99629" lon="6.69386">
        <ele>1814.15</ele>
        <time>2021-03-31T08:26:31Z</time>
      </trkpt>
      <trkpt lat="45.99619" lon="6.69387">
        <ele>1815.59</ele>
        <time>2021-03-31T08:26:47Z</time>
      </trkpt>
      <trkpt lat="45.9961" lon="6.69388">
        <ele>1817.99</ele>
        <time>2021-03-31T08:27:01Z</time>
      </trkpt>
      <trkpt lat="45.99601" lon="6.69389">
        <ele>1820.39</ele>
        <time>2021-03-31T08:27:16Z</time>
      </trkpt>
      <trkpt lat="45.99593" lon="6.6939">
        <ele>1822.8</ele>
        <time>2021-03-31T08:27:32Z</time>
      </trkpt>
      <trkpt lat="45.99585" lon="6.69394">
        <ele>1826.16</ele>
        <time>2021-03-31T08:27:48Z</time>
      </trkpt>
      <trkpt lat="45.9958" lon="6.69398">
        <ele>1828.56</ele>
        <time>2021-03-31T08:28:02Z</time>
      </trkpt>
      <trkpt lat="45.99573" lon="6.69397">
        <ele>1830.97</ele>
        <time>2021-03-31T08:28:16Z</time>
      </trkpt>
      <trkpt lat="45.99567" lon="6.69405">
        <ele>1832.89</ele>
        <time>2021-03-31T08:28:32Z</time>
      </trkpt>
      <trkpt lat="45.99564" lon="6.69418">
        <ele>1834.33</ele>
        <time>2021-03-31T08:28:46Z</time>
      </trkpt>
      <trkpt lat="45.99563" lon="6.69425">
        <ele>1835.77</ele>
        <time>2021-03-31T08:29:01Z</time>
      </trkpt>
      <trkpt lat="45.99564" lon="6.69424">
        <ele>1835.77</ele>
        <time>2021-03-31T08:29:21Z</time>
      </trkpt>
      <trkpt lat="45.99564" lon="6.69426">
        <ele>1835.77</ele>
        <time>2021-03-31T08:29:40Z</time>
      </trkpt>
      <trkpt lat="45.99567" lon="6.69425">
        <ele>1836.26</ele>
        <time>2021-03-31T08:30:05Z</time>
      </trkpt>
      <trkpt lat="45.99565" lon="6.69423">
        <ele>1836.26</ele>
        <time>2021-03-31T08:30:23Z</time>
      </trkpt>
      <trkpt lat="45.99566" lon="6.69423">
        <ele>1836.26</ele>
        <time>2021-03-31T08:30:43Z</time>
      </trkpt>
      <trkpt lat="45.99565" lon="6.69428">
        <ele>1836.26</ele>
        <time>2021-03-31T08:31:01Z</time>
      </trkpt>
      <trkpt lat="45.99564" lon="6.6943">
        <ele>1836.74</ele>
        <time>2021-03-31T08:31:03Z</time>
      </trkpt>
      <trkpt lat="45.99561" lon="6.69438">
        <ele>1837.7</ele>
        <time>2021-03-31T08:31:10Z</time>
      </trkpt>
      <trkpt lat="45.9956" lon="6.69452">
        <ele>1839.62</ele>
        <time>2021-03-31T08:31:22Z</time>
      </trkpt>
      <trkpt lat="45.99559" lon="6.69462">
        <ele>1841.06</ele>
        <time>2021-03-31T08:31:32Z</time>
      </trkpt>
      <trkpt lat="45.99556" lon="6.69476">
        <ele>1843.47</ele>
        <time>2021-03-31T08:31:46Z</time>
      </trkpt>
      <trkpt lat="45.99556" lon="6.69482">
        <ele>1844.43</ele>
        <time>2021-03-31T08:31:54Z</time>
      </trkpt>
      <trkpt lat="45.99554" lon="6.69496">
        <ele>1846.35</ele>
        <time>2021-03-31T08:32:07Z</time>
      </trkpt>
      <trkpt lat="45.9955" lon="6.69507">
        <ele>1847.79</ele>
        <time>2021-03-31T08:32:19Z</time>
      </trkpt>
      <trkpt lat="45.99545" lon="6.69518">
        <ele>1850.19</ele>
        <time>2021-03-31T08:32:33Z</time>
      </trkpt>
      <trkpt lat="45.99541" lon="6.69529">
        <ele>1851.64</ele>
        <time>2021-03-31T08:32:46Z</time>
      </trkpt>
      <trkpt lat="45.99537" lon="6.69538">
        <ele>1855</ele>
        <time>2021-03-31T08:33:01Z</time>
      </trkpt>
      <trkpt lat="45.99534" lon="6.69546">
        <ele>1855.96</ele>
        <time>2021-03-31T08:33:13Z</time>
      </trkpt>
      <trkpt lat="45.99531" lon="6.69557">
        <ele>1858.85</ele>
        <time>2021-03-31T08:33:29Z</time>
      </trkpt>
      <trkpt lat="45.99526" lon="6.6957">
        <ele>1861.73</ele>
        <time>2021-03-31T08:33:44Z</time>
      </trkpt>
      <trkpt lat="45.99522" lon="6.69579">
        <ele>1863.65</ele>
        <time>2021-03-31T08:33:58Z</time>
      </trkpt>
      <trkpt lat="45.99512" lon="6.6959">
        <ele>1865.58</ele>
        <time>2021-03-31T08:34:13Z</time>
      </trkpt>
      <trkpt lat="45.99511" lon="6.69592">
        <ele>1866.06</ele>
        <time>2021-03-31T08:34:16Z</time>
      </trkpt>
      <trkpt lat="45.99502" lon="6.69601">
        <ele>1867.98</ele>
        <time>2021-03-31T08:34:31Z</time>
      </trkpt>
      <trkpt lat="45.99497" lon="6.69609">
        <ele>1868.46</ele>
        <time>2021-03-31T08:34:41Z</time>
      </trkpt>
      <trkpt lat="45.99491" lon="6.69618">
        <ele>1868.94</ele>
        <time>2021-03-31T08:34:52Z</time>
      </trkpt>
      <trkpt lat="45.99484" lon="6.69628">
        <ele>1871.82</ele>
        <time>2021-03-31T08:35:06Z</time>
      </trkpt>
      <trkpt lat="45.99478" lon="6.69637">
        <ele>1873.75</ele>
        <time>2021-03-31T08:35:19Z</time>
      </trkpt>
      <trkpt lat="45.9947" lon="6.69646">
        <ele>1875.67</ele>
        <time>2021-03-31T08:35:33Z</time>
      </trkpt>
      <trkpt lat="45.99462" lon="6.69653">
        <ele>1877.11</ele>
        <time>2021-03-31T08:35:46Z</time>
      </trkpt>
      <trkpt lat="45.99461" lon="6.69655">
        <ele>1878.55</ele>
        <time>2021-03-31T08:36:01Z</time>
      </trkpt>
      <trkpt lat="45.99456" lon="6.69657">
        <ele>1879.51</ele>
        <time>2021-03-31T08:36:15Z</time>
      </trkpt>
      <trkpt lat="45.99449" lon="6.69657">
        <ele>1882.4</ele>
        <time>2021-03-31T08:36:28Z</time>
      </trkpt>
      <trkpt lat="45.99447" lon="6.6966">
        <ele>1883.36</ele>
        <time>2021-03-31T08:36:34Z</time>
      </trkpt>
      <trkpt lat="45.99439" lon="6.69665">
        <ele>1885.76</ele>
        <time>2021-03-31T08:36:48Z</time>
      </trkpt>
      <trkpt lat="45.99432" lon="6.6967">
        <ele>1887.69</ele>
        <time>2021-03-31T08:37:01Z</time>
      </trkpt>
      <trkpt lat="45.99427" lon="6.6968">
        <ele>1889.61</ele>
        <time>2021-03-31T08:37:16Z</time>
      </trkpt>
      <trkpt lat="45.99422" lon="6.69688">
        <ele>1892.49</ele>
        <time>2021-03-31T08:37:31Z</time>
      </trkpt>
      <trkpt lat="45.99413" lon="6.69686">
        <ele>1894.9</ele>
        <time>2021-03-31T08:37:45Z</time>
      </trkpt>
      <trkpt lat="45.99406" lon="6.69681">
        <ele>1897.78</ele>
        <time>2021-03-31T08:37:59Z</time>
      </trkpt>
      <trkpt lat="45.99399" lon="6.6968">
        <ele>1899.22</ele>
        <time>2021-03-31T08:38:11Z</time>
      </trkpt>
      <trkpt lat="45.99395" lon="6.69686">
        <ele>1900.66</ele>
        <time>2021-03-31T08:38:24Z</time>
      </trkpt>
      <trkpt lat="45.99388" lon="6.69694">
        <ele>1902.59</ele>
        <time>2021-03-31T08:38:37Z</time>
      </trkpt>
      <trkpt lat="45.99384" lon="6.69705">
        <ele>1904.03</ele>
        <time>2021-03-31T08:38:51Z</time>
      </trkpt>
      <trkpt lat="45.9938" lon="6.69714">
        <ele>1906.91</ele>
        <time>2021-03-31T08:39:06Z</time>
      </trkpt>
      <trkpt lat="45.99373" lon="6.69718">
        <ele>1909.8</ele>
        <time>2021-03-31T08:39:21Z</time>
      </trkpt>
      <trkpt lat="45.99368" lon="6.69718">
        <ele>1911.72</ele>
        <time>2021-03-31T08:39:34Z</time>
      </trkpt>
      <trkpt lat="45.99369" lon="6.69731">
        <ele>1914.12</ele>
        <time>2021-03-31T08:39:49Z</time>
      </trkpt>
      <trkpt lat="45.99369" lon="6.6974">
        <ele>1915.56</ele>
        <time>2021-03-31T08:40:01Z</time>
      </trkpt>
      <trkpt lat="45.9937" lon="6.6975">
        <ele>1918.45</ele>
        <time>2021-03-31T08:40:17Z</time>
      </trkpt>
      <trkpt lat="45.99371" lon="6.69758">
        <ele>1919.89</ele>
        <time>2021-03-31T08:40:27Z</time>
      </trkpt>
      <trkpt lat="45.99371" lon="6.69766">
        <ele>1922.29</ele>
        <time>2021-03-31T08:40:37Z</time>
      </trkpt>
      <trkpt lat="45.9937" lon="6.69778">
        <ele>1924.22</ele>
        <time>2021-03-31T08:40:52Z</time>
      </trkpt>
      <trkpt lat="45.99368" lon="6.69784">
        <ele>1925.66</ele>
        <time>2021-03-31T08:41:04Z</time>
      </trkpt>
      <trkpt lat="45.99364" lon="6.69795">
        <ele>1928.06</ele>
        <time>2021-03-31T08:41:19Z</time>
      </trkpt>
      <trkpt lat="45.99362" lon="6.69804">
        <ele>1929.98</ele>
        <time>2021-03-31T08:41:31Z</time>
      </trkpt>
      <trkpt lat="45.99359" lon="6.69815">
        <ele>1930.95</ele>
        <time>2021-03-31T08:41:45Z</time>
      </trkpt>
      <trkpt lat="45.99357" lon="6.69825">
        <ele>1933.35</ele>
        <time>2021-03-31T08:41:58Z</time>
      </trkpt>
      <trkpt lat="45.99357" lon="6.69835">
        <ele>1935.75</ele>
        <time>2021-03-31T08:42:11Z</time>
      </trkpt>
      <trkpt lat="45.99357" lon="6.69847">
        <ele>1937.67</ele>
        <time>2021-03-31T08:42:23Z</time>
      </trkpt>
      <trkpt lat="45.9935" lon="6.69847">
        <ele>1939.12</ele>
        <time>2021-03-31T08:42:34Z</time>
      </trkpt>
      <trkpt lat="45.99343" lon="6.69846">
        <ele>1941.52</ele>
        <time>2021-03-31T08:42:47Z</time>
      </trkpt>
      <trkpt lat="45.99337" lon="6.69846">
        <ele>1943.44</ele>
        <time>2021-03-31T08:43:00Z</time>
      </trkpt>
      <trkpt lat="45.99332" lon="6.69852">
        <ele>1944.88</ele>
        <time>2021-03-31T08:43:13Z</time>
      </trkpt>
      <trkpt lat="45.99331" lon="6.69854">
        <ele>1946.33</ele>
        <time>2021-03-31T08:43:29Z</time>
      </trkpt>
      <trkpt lat="45.99326" lon="6.6986">
        <ele>1947.29</ele>
        <time>2021-03-31T08:43:43Z</time>
      </trkpt>
      <trkpt lat="45.99321" lon="6.6987">
        <ele>1950.17</ele>
        <time>2021-03-31T08:43:59Z</time>
      </trkpt>
      <trkpt lat="45.99317" lon="6.69879">
        <ele>1952.09</ele>
        <time>2021-03-31T08:44:11Z</time>
      </trkpt>
      <trkpt lat="45.99313" lon="6.69888">
        <ele>1954.02</ele>
        <time>2021-03-31T08:44:25Z</time>
      </trkpt>
      <trkpt lat="45.99309" lon="6.699">
        <ele>1956.9</ele>
        <time>2021-03-31T08:44:40Z</time>
      </trkpt>
      <trkpt lat="45.99304" lon="6.69911">
        <ele>1958.82</ele>
        <time>2021-03-31T08:44:54Z</time>
      </trkpt>
      <trkpt lat="45.99299" lon="6.69922">
        <ele>1960.75</ele>
        <time>2021-03-31T08:45:08Z</time>
      </trkpt>
      <trkpt lat="45.99296" lon="6.69932">
        <ele>1962.67</ele>
        <time>2021-03-31T08:45:22Z</time>
      </trkpt>
      <trkpt lat="45.99291" lon="6.69944">
        <ele>1965.07</ele>
        <time>2021-03-31T08:45:37Z</time>
      </trkpt>
      <trkpt lat="45.99287" lon="6.69954">
        <ele>1967.48</ele>
        <time>2021-03-31T08:45:51Z</time>
      </trkpt>
      <trkpt lat="45.99279" lon="6.69953">
        <ele>1969.88</ele>
        <time>2021-03-31T08:46:05Z</time>
      </trkpt>
      <trkpt lat="45.99276" lon="6.69962">
        <ele>1972.28</ele>
        <time>2021-03-31T08:46:17Z</time>
      </trkpt>
      <trkpt lat="45.99272" lon="6.69961">
        <ele>1974.2</ele>
        <time>2021-03-31T08:46:28Z</time>
      </trkpt>
      <trkpt lat="45.99266" lon="6.69955">
        <ele>1976.13</ele>
        <time>2021-03-31T08:46:40Z</time>
      </trkpt>
      <trkpt lat="45.99259" lon="6.69952">
        <ele>1977.57</ele>
        <time>2021-03-31T08:46:54Z</time>
      </trkpt>
      <trkpt lat="45.99253" lon="6.6995">
        <ele>1979.49</ele>
        <time>2021-03-31T08:47:06Z</time>
      </trkpt>
      <trkpt lat="45.99248" lon="6.6995">
        <ele>1981.41</ele>
        <time>2021-03-31T08:47:18Z</time>
      </trkpt>
      <trkpt lat="45.99242" lon="6.69948">
        <ele>1982.38</ele>
        <time>2021-03-31T08:47:30Z</time>
      </trkpt>
      <trkpt lat="45.99235" lon="6.6995">
        <ele>1983.82</ele>
        <time>2021-03-31T08:47:47Z</time>
      </trkpt>
      <trkpt lat="45.99236" lon="6.69955">
        <ele>1983.82</ele>
        <time>2021-03-31T08:48:06Z</time>
      </trkpt>
      <trkpt lat="45.99234" lon="6.69957">
        <ele>1983.82</ele>
        <time>2021-03-31T08:48:43Z</time>
      </trkpt>
      <trkpt lat="45.99234" lon="6.69951">
        <ele>1984.3</ele>
        <time>2021-03-31T08:48:54Z</time>
      </trkpt>
      <trkpt lat="45.99233" lon="6.6995">
        <ele>1984.3</ele>
        <time>2021-03-31T08:49:20Z</time>
      </trkpt>
      <trkpt lat="45.99233" lon="6.69949">
        <ele>1984.3</ele>
        <time>2021-03-31T08:49:37Z</time>
      </trkpt>
      <trkpt lat="45.99233" lon="6.6995">
        <ele>1984.3</ele>
        <time>2021-03-31T08:49:52Z</time>
      </trkpt>
      <trkpt lat="45.99233" lon="6.6995">
        <ele>1984.3</ele>
        <time>2021-03-31T08:50:16Z</time>
      </trkpt>
      <trkpt lat="45.99232" lon="6.69951">
        <ele>1984.3</ele>
        <time>2021-03-31T08:50:34Z</time>
      </trkpt>
      <trkpt lat="45.99234" lon="6.69949">
        <ele>1984.3</ele>
        <time>2021-03-31T08:51:02Z</time>
      </trkpt>
      <trkpt lat="45.99234" lon="6.69952">
        <ele>1984.3</ele>
        <time>2021-03-31T08:51:30Z</time>
      </trkpt>
      <trkpt lat="45.99235" lon="6.69952">
        <ele>1984.3</ele>
        <time>2021-03-31T08:51:46Z</time>
      </trkpt>
      <trkpt lat="45.99235" lon="6.69953">
        <ele>1984.3</ele>
        <time>2021-03-31T08:52:10Z</time>
      </trkpt>
      <trkpt lat="45.99234" lon="6.69952">
        <ele>1984.3</ele>
        <time>2021-03-31T08:52:29Z</time>
      </trkpt>
      <trkpt lat="45.99234" lon="6.69951">
        <ele>1984.3</ele>
        <time>2021-03-31T08:52:49Z</time>
      </trkpt>
      <trkpt lat="45.99229" lon="6.69956">
        <ele>1985.26</ele>
        <time>2021-03-31T08:53:01Z</time>
      </trkpt>
      <trkpt lat="45.99221" lon="6.69957">
        <ele>1987.66</ele>
        <time>2021-03-31T08:53:14Z</time>
      </trkpt>
      <trkpt lat="45.99218" lon="6.69967">
        <ele>1988.62</ele>
        <time>2021-03-31T08:53:26Z</time>
      </trkpt>
      <trkpt lat="45.99214" lon="6.69975">
        <ele>1991.03</ele>
        <time>2021-03-31T08:53:39Z</time>
      </trkpt>
      <trkpt lat="45.99208" lon="6.69973">
        <ele>1992.95</ele>
        <time>2021-03-31T08:53:51Z</time>
      </trkpt>
      <trkpt lat="45.992" lon="6.69972">
        <ele>1994.87</ele>
        <time>2021-03-31T08:54:06Z</time>
      </trkpt>
      <trkpt lat="45.99197" lon="6.6998">
        <ele>1996.32</ele>
        <time>2021-03-31T08:54:17Z</time>
      </trkpt>
      <trkpt lat="45.99193" lon="6.69991">
        <ele>1998.72</ele>
        <time>2021-03-31T08:54:34Z</time>
      </trkpt>
      <trkpt lat="45.99186" lon="6.69989">
        <ele>2001.12</ele>
        <time>2021-03-31T08:54:47Z</time>
      </trkpt>
      <trkpt lat="45.99181" lon="6.69996">
        <ele>2002.56</ele>
        <time>2021-03-31T08:55:00Z</time>
      </trkpt>
      <trkpt lat="45.99172" lon="6.69996">
        <ele>2004.97</ele>
        <time>2021-03-31T08:55:13Z</time>
      </trkpt>
      <trkpt lat="45.99166" lon="6.70004">
        <ele>2005.45</ele>
        <time>2021-03-31T08:55:28Z</time>
      </trkpt>
      <trkpt lat="45.99159" lon="6.70014">
        <ele>2007.37</ele>
        <time>2021-03-31T08:55:43Z</time>
      </trkpt>
      <trkpt lat="45.99153" lon="6.70019">
        <ele>2009.29</ele>
        <time>2021-03-31T08:55:55Z</time>
      </trkpt>
      <trkpt lat="45.99153" lon="6.7002">
        <ele>2009.29</ele>
        <time>2021-03-31T08:56:12Z</time>
      </trkpt>
      <trkpt lat="45.99153" lon="6.70021">
        <ele>2009.29</ele>
        <time>2021-03-31T08:56:33Z</time>
      </trkpt>
      <trkpt lat="45.9915" lon="6.70021">
        <ele>2009.77</ele>
        <time>2021-03-31T08:56:54Z</time>
      </trkpt>
      <trkpt lat="45.99142" lon="6.70027">
        <ele>2011.7</ele>
        <time>2021-03-31T08:57:07Z</time>
      </trkpt>
      <trkpt lat="45.99135" lon="6.70036">
        <ele>2013.62</ele>
        <time>2021-03-31T08:57:19Z</time>
      </trkpt>
      <trkpt lat="45.99129" lon="6.70042">
        <ele>2015.54</ele>
        <time>2021-03-31T08:57:31Z</time>
      </trkpt>
      <trkpt lat="45.99122" lon="6.70049">
        <ele>2016.98</ele>
        <time>2021-03-31T08:57:45Z</time>
      </trkpt>
      <trkpt lat="45.99116" lon="6.70057">
        <ele>2018.91</ele>
        <time>2021-03-31T08:57:59Z</time>
      </trkpt>
      <trkpt lat="45.99107" lon="6.70064">
        <ele>2019.87</ele>
        <time>2021-03-31T08:58:11Z</time>
      </trkpt>
      <trkpt lat="45.99099" lon="6.70069">
        <ele>2021.79</ele>
        <time>2021-03-31T08:58:26Z</time>
      </trkpt>
      <trkpt lat="45.99092" lon="6.70075">
        <ele>2023.23</ele>
        <time>2021-03-31T08:58:39Z</time>
      </trkpt>
      <trkpt lat="45.99089" lon="6.70078">
        <ele>2024.19</ele>
        <time>2021-03-31T08:58:46Z</time>
      </trkpt>
      <trkpt lat="45.99083" lon="6.70087">
        <ele>2026.12</ele>
        <time>2021-03-31T08:58:59Z</time>
      </trkpt>
      <trkpt lat="45.99079" lon="6.70101">
        <ele>2029.48</ele>
        <time>2021-03-31T08:59:18Z</time>
      </trkpt>
      <trkpt lat="45.99078" lon="6.70112">
        <ele>2031.4</ele>
        <time>2021-03-31T08:59:32Z</time>
      </trkpt>
      <trkpt lat="45.99075" lon="6.7012">
        <ele>2033.33</ele>
        <time>2021-03-31T08:59:44Z</time>
      </trkpt>
      <trkpt lat="45.99072" lon="6.7013">
        <ele>2035.73</ele>
        <time>2021-03-31T08:59:59Z</time>
      </trkpt>
      <trkpt lat="45.99067" lon="6.70137">
        <ele>2037.17</ele>
        <time>2021-03-31T09:00:13Z</time>
      </trkpt>
      <trkpt lat="45.99064" lon="6.70146">
        <ele>2039.09</ele>
        <time>2021-03-31T09:00:28Z</time>
      </trkpt>
      <trkpt lat="45.99058" lon="6.70159">
        <ele>2041.5</ele>
        <time>2021-03-31T09:00:46Z</time>
      </trkpt>
      <trkpt lat="45.99053" lon="6.70169">
        <ele>2044.38</ele>
        <time>2021-03-31T09:01:02Z</time>
      </trkpt>
      <trkpt lat="45.9905" lon="6.70179">
        <ele>2046.3</ele>
        <time>2021-03-31T09:01:16Z</time>
      </trkpt>
      <trkpt lat="45.99048" lon="6.70184">
        <ele>2048.23</ele>
        <time>2021-03-31T09:01:31Z</time>
      </trkpt>
      <trkpt lat="45.99045" lon="6.70191">
        <ele>2050.63</ele>
        <time>2021-03-31T09:01:45Z</time>
      </trkpt>
      <trkpt lat="45.99039" lon="6.70196">
        <ele>2052.55</ele>
        <time>2021-03-31T09:01:58Z</time>
      </trkpt>
      <trkpt lat="45.99034" lon="6.70201">
        <ele>2054.47</ele>
        <time>2021-03-31T09:02:11Z</time>
      </trkpt>
      <trkpt lat="45.9903" lon="6.70212">
        <ele>2056.88</ele>
        <time>2021-03-31T09:02:27Z</time>
      </trkpt>
      <trkpt lat="45.99026" lon="6.70219">
        <ele>2059.28</ele>
        <time>2021-03-31T09:02:40Z</time>
      </trkpt>
      <trkpt lat="45.99021" lon="6.70229">
        <ele>2061.2</ele>
        <time>2021-03-31T09:02:56Z</time>
      </trkpt>
      <trkpt lat="45.99015" lon="6.70233">
        <ele>2063.13</ele>
        <time>2021-03-31T09:03:09Z</time>
      </trkpt>
      <trkpt lat="45.9901" lon="6.70235">
        <ele>2064.09</ele>
        <time>2021-03-31T09:03:16Z</time>
      </trkpt>
      <trkpt lat="45.99001" lon="6.70239">
        <ele>2066.01</ele>
        <time>2021-03-31T09:03:31Z</time>
      </trkpt>
      <trkpt lat="45.98994" lon="6.70244">
        <ele>2067.93</ele>
        <time>2021-03-31T09:03:46Z</time>
      </trkpt>
      <trkpt lat="45.98987" lon="6.70245">
        <ele>2070.34</ele>
        <time>2021-03-31T09:04:00Z</time>
      </trkpt>
      <trkpt lat="45.98981" lon="6.70253">
        <ele>2072.26</ele>
        <time>2021-03-31T09:04:13Z</time>
      </trkpt>
      <trkpt lat="45.98978" lon="6.70259">
        <ele>2074.18</ele>
        <time>2021-03-31T09:04:25Z</time>
      </trkpt>
      <trkpt lat="45.98972" lon="6.70266">
        <ele>2076.1</ele>
        <time>2021-03-31T09:04:39Z</time>
      </trkpt>
      <trkpt lat="45.9897" lon="6.70277">
        <ele>2078.03</ele>
        <time>2021-03-31T09:04:53Z</time>
      </trkpt>
      <trkpt lat="45.98968" lon="6.70287">
        <ele>2079.95</ele>
        <time>2021-03-31T09:05:07Z</time>
      </trkpt>
      <trkpt lat="45.98962" lon="6.70297">
        <ele>2081.87</ele>
        <time>2021-03-31T09:05:23Z</time>
      </trkpt>
      <trkpt lat="45.98958" lon="6.70304">
        <ele>2083.79</ele>
        <time>2021-03-31T09:05:36Z</time>
      </trkpt>
      <trkpt lat="45.98953" lon="6.70309">
        <ele>2085.24</ele>
        <time>2021-03-31T09:05:48Z</time>
      </trkpt>
      <trkpt lat="45.98947" lon="6.70317">
        <ele>2086.68</ele>
        <time>2021-03-31T09:06:01Z</time>
      </trkpt>
      <trkpt lat="45.9894" lon="6.70328">
        <ele>2088.12</ele>
        <time>2021-03-31T09:06:15Z</time>
      </trkpt>
      <trkpt lat="45.98933" lon="6.70338">
        <ele>2090.52</ele>
        <time>2021-03-31T09:06:33Z</time>
      </trkpt>
      <trkpt lat="45.98927" lon="6.70346">
        <ele>2092.93</ele>
        <time>2021-03-31T09:06:47Z</time>
      </trkpt>
      <trkpt lat="45.98922" lon="6.70353">
        <ele>2094.37</ele>
        <time>2021-03-31T09:06:59Z</time>
      </trkpt>
      <trkpt lat="45.98917" lon="6.70361">
        <ele>2096.77</ele>
        <time>2021-03-31T09:07:13Z</time>
      </trkpt>
      <trkpt lat="45.98911" lon="6.70365">
        <ele>2099.18</ele>
        <time>2021-03-31T09:07:27Z</time>
      </trkpt>
      <trkpt lat="45.98905" lon="6.70367">
        <ele>2100.62</ele>
        <time>2021-03-31T09:07:40Z</time>
      </trkpt>
      <trkpt lat="45.98896" lon="6.70374">
        <ele>2103.02</ele>
        <time>2021-03-31T09:07:57Z</time>
      </trkpt>
      <trkpt lat="45.98887" lon="6.70383">
        <ele>2105.91</ele>
        <time>2021-03-31T09:08:16Z</time>
      </trkpt>
      <trkpt lat="45.9888" lon="6.70389">
        <ele>2107.83</ele>
        <time>2021-03-31T09:08:33Z</time>
      </trkpt>
      <trkpt lat="45.98874" lon="6.70394">
        <ele>2109.75</ele>
        <time>2021-03-31T09:08:46Z</time>
      </trkpt>
      <trkpt lat="45.98868" lon="6.70399">
        <ele>2111.67</ele>
        <time>2021-03-31T09:08:59Z</time>
      </trkpt>
      <trkpt lat="45.98861" lon="6.70404">
        <ele>2114.08</ele>
        <time>2021-03-31T09:09:13Z</time>
      </trkpt>
      <trkpt lat="45.98854" lon="6.70407">
        <ele>2116.48</ele>
        <time>2021-03-31T09:09:27Z</time>
      </trkpt>
      <trkpt lat="45.98847" lon="6.70413">
        <ele>2118.88</ele>
        <time>2021-03-31T09:09:41Z</time>
      </trkpt>
      <trkpt lat="45.9884" lon="6.70417">
        <ele>2120.81</ele>
        <time>2021-03-31T09:09:56Z</time>
      </trkpt>
      <trkpt lat="45.98833" lon="6.70424">
        <ele>2123.69</ele>
        <time>2021-03-31T09:10:11Z</time>
      </trkpt>
      <trkpt lat="45.98824" lon="6.70427">
        <ele>2126.09</ele>
        <time>2021-03-31T09:10:28Z</time>
      </trkpt>
      <trkpt lat="45.98818" lon="6.70433">
        <ele>2128.02</ele>
        <time>2021-03-31T09:10:42Z</time>
      </trkpt>
      <trkpt lat="45.98812" lon="6.7044">
        <ele>2129.94</ele>
        <time>2021-03-31T09:10:56Z</time>
      </trkpt>
      <trkpt lat="45.98805" lon="6.70444">
        <ele>2132.82</ele>
        <time>2021-03-31T09:11:11Z</time>
      </trkpt>
      <trkpt lat="45.98798" lon="6.7045">
        <ele>2135.23</ele>
        <time>2021-03-31T09:11:27Z</time>
      </trkpt>
      <trkpt lat="45.98792" lon="6.70459">
        <ele>2136.67</ele>
        <time>2021-03-31T09:11:42Z</time>
      </trkpt>
      <trkpt lat="45.98784" lon="6.70462">
        <ele>2139.55</ele>
        <time>2021-03-31T09:11:58Z</time>
      </trkpt>
      <trkpt lat="45.98776" lon="6.70462">
        <ele>2141.47</ele>
        <time>2021-03-31T09:12:12Z</time>
      </trkpt>
      <trkpt lat="45.98772" lon="6.70471">
        <ele>2143.4</ele>
        <time>2021-03-31T09:12:27Z</time>
      </trkpt>
      <trkpt lat="45.98767" lon="6.70481">
        <ele>2145.8</ele>
        <time>2021-03-31T09:12:43Z</time>
      </trkpt>
      <trkpt lat="45.9876" lon="6.70485">
        <ele>2148.2</ele>
        <time>2021-03-31T09:12:57Z</time>
      </trkpt>
      <trkpt lat="45.98752" lon="6.70488">
        <ele>2151.09</ele>
        <time>2021-03-31T09:13:12Z</time>
      </trkpt>
      <trkpt lat="45.98745" lon="6.70493">
        <ele>2153.01</ele>
        <time>2021-03-31T09:13:27Z</time>
      </trkpt>
      <trkpt lat="45.98738" lon="6.70497">
        <ele>2155.41</ele>
        <time>2021-03-31T09:13:42Z</time>
      </trkpt>
      <trkpt lat="45.9873" lon="6.70502">
        <ele>2157.82</ele>
        <time>2021-03-31T09:13:57Z</time>
      </trkpt>
      <trkpt lat="45.98723" lon="6.70506">
        <ele>2159.74</ele>
        <time>2021-03-31T09:14:10Z</time>
      </trkpt>
      <trkpt lat="45.98716" lon="6.70509">
        <ele>2161.66</ele>
        <time>2021-03-31T09:14:24Z</time>
      </trkpt>
      <trkpt lat="45.98709" lon="6.70517">
        <ele>2163.58</ele>
        <time>2021-03-31T09:14:39Z</time>
      </trkpt>
      <trkpt lat="45.98702" lon="6.70523">
        <ele>2165.51</ele>
        <time>2021-03-31T09:14:50Z</time>
      </trkpt>
      <trkpt lat="45.98698" lon="6.70525">
        <ele>2166.47</ele>
        <time>2021-03-31T09:15:06Z</time>
      </trkpt>
      <trkpt lat="45.98696" lon="6.70527">
        <ele>2166.47</ele>
        <time>2021-03-31T09:15:39Z</time>
      </trkpt>
      <trkpt lat="45.98686" lon="6.70533">
        <ele>2168.87</ele>
        <time>2021-03-31T09:15:54Z</time>
      </trkpt>
      <trkpt lat="45.98676" lon="6.70539">
        <ele>2170.79</ele>
        <time>2021-03-31T09:16:09Z</time>
      </trkpt>
      <trkpt lat="45.98674" lon="6.70539">
        <ele>2171.27</ele>
        <time>2021-03-31T09:16:36Z</time>
      </trkpt>
      <trkpt lat="45.98674" lon="6.70539">
        <ele>2171.27</ele>
        <time>2021-03-31T09:16:37Z</time>
      </trkpt>
      <trkpt lat="45.98668" lon="6.70541">
        <ele>2172.72</ele>
        <time>2021-03-31T09:16:46Z</time>
      </trkpt>
      <trkpt lat="45.98658" lon="6.70548">
        <ele>2175.12</ele>
        <time>2021-03-31T09:17:00Z</time>
      </trkpt>
      <trkpt lat="45.98649" lon="6.70556">
        <ele>2176.08</ele>
        <time>2021-03-31T09:17:14Z</time>
      </trkpt>
      <trkpt lat="45.9864" lon="6.70563">
        <ele>2178</ele>
        <time>2021-03-31T09:17:28Z</time>
      </trkpt>
      <trkpt lat="45.98632" lon="6.7057">
        <ele>2178.97</ele>
        <time>2021-03-31T09:17:41Z</time>
      </trkpt>
      <trkpt lat="45.98624" lon="6.70577">
        <ele>2180.41</ele>
        <time>2021-03-31T09:17:56Z</time>
      </trkpt>
      <trkpt lat="45.98622" lon="6.70579">
        <ele>2181.37</ele>
        <time>2021-03-31T09:18:00Z</time>
      </trkpt>
      <trkpt lat="45.98613" lon="6.70586">
        <ele>2182.33</ele>
        <time>2021-03-31T09:18:13Z</time>
      </trkpt>
      <trkpt lat="45.98604" lon="6.70596">
        <ele>2182.81</ele>
        <time>2021-03-31T09:18:27Z</time>
      </trkpt>
      <trkpt lat="45.98596" lon="6.70605">
        <ele>2183.77</ele>
        <time>2021-03-31T09:18:40Z</time>
      </trkpt>
      <trkpt lat="45.98588" lon="6.70612">
        <ele>2185.69</ele>
        <time>2021-03-31T09:18:52Z</time>
      </trkpt>
      <trkpt lat="45.9858" lon="6.70621">
        <ele>2186.66</ele>
        <time>2021-03-31T09:19:04Z</time>
      </trkpt>
      <trkpt lat="45.98571" lon="6.70629">
        <ele>2186.66</ele>
        <time>2021-03-31T09:19:16Z</time>
      </trkpt>
      <trkpt lat="45.98563" lon="6.70638">
        <ele>2186.66</ele>
        <time>2021-03-31T09:19:29Z</time>
      </trkpt>
      <trkpt lat="45.98561" lon="6.7064">
        <ele>2188.1</ele>
        <time>2021-03-31T09:19:43Z</time>
      </trkpt>
      <trkpt lat="45.98558" lon="6.70641">
        <ele>2188.1</ele>
        <time>2021-03-31T09:20:02Z</time>
      </trkpt>
      <trkpt lat="45.98557" lon="6.70654">
        <ele>2188.58</ele>
        <time>2021-03-31T09:20:21Z</time>
      </trkpt>
      <trkpt lat="45.98556" lon="6.70657">
        <ele>2188.58</ele>
        <time>2021-03-31T09:20:24Z</time>
      </trkpt>
      <trkpt lat="45.98551" lon="6.70671">
        <ele>2189.54</ele>
        <time>2021-03-31T09:20:38Z</time>
      </trkpt>
      <trkpt lat="45.98544" lon="6.70683">
        <ele>2190.98</ele>
        <time>2021-03-31T09:20:52Z</time>
      </trkpt>
      <trkpt lat="45.98539" lon="6.70693">
        <ele>2191.94</ele>
        <time>2021-03-31T09:21:05Z</time>
      </trkpt>
      <trkpt lat="45.98534" lon="6.707">
        <ele>2193.87</ele>
        <time>2021-03-31T09:21:19Z</time>
      </trkpt>
      <trkpt lat="45.98528" lon="6.70701">
        <ele>2194.83</ele>
        <time>2021-03-31T09:21:42Z</time>
      </trkpt>
      <trkpt lat="45.98518" lon="6.70696">
        <ele>2196.27</ele>
        <time>2021-03-31T09:21:57Z</time>
      </trkpt>
      <trkpt lat="45.98511" lon="6.70693">
        <ele>2198.19</ele>
        <time>2021-03-31T09:22:09Z</time>
      </trkpt>
      <trkpt lat="45.985" lon="6.70692">
        <ele>2200.11</ele>
        <time>2021-03-31T09:22:24Z</time>
      </trkpt>
      <trkpt lat="45.98492" lon="6.70691">
        <ele>2202.04</ele>
        <time>2021-03-31T09:22:38Z</time>
      </trkpt>
      <trkpt lat="45.98486" lon="6.70691">
        <ele>2204.44</ele>
        <time>2021-03-31T09:22:52Z</time>
      </trkpt>
      <trkpt lat="45.98478" lon="6.7069">
        <ele>2206.36</ele>
        <time>2021-03-31T09:23:06Z</time>
      </trkpt>
      <trkpt lat="45.98472" lon="6.7069">
        <ele>2208.29</ele>
        <time>2021-03-31T09:23:19Z</time>
      </trkpt>
      <trkpt lat="45.98464" lon="6.70694">
        <ele>2210.69</ele>
        <time>2021-03-31T09:23:35Z</time>
      </trkpt>
      <trkpt lat="45.98458" lon="6.70703">
        <ele>2212.61</ele>
        <time>2021-03-31T09:23:49Z</time>
      </trkpt>
      <trkpt lat="45.98456" lon="6.70704">
        <ele>2212.61</ele>
        <time>2021-03-31T09:23:51Z</time>
      </trkpt>
      <trkpt lat="45.98446" lon="6.7071">
        <ele>2214.05</ele>
        <time>2021-03-31T09:24:06Z</time>
      </trkpt>
      <trkpt lat="45.98438" lon="6.7071">
        <ele>2216.46</ele>
        <time>2021-03-31T09:24:22Z</time>
      </trkpt>
      <trkpt lat="45.98431" lon="6.70711">
        <ele>2218.38</ele>
        <time>2021-03-31T09:24:36Z</time>
      </trkpt>
      <trkpt lat="45.98428" lon="6.70713">
        <ele>2219.34</ele>
        <time>2021-03-31T09:24:48Z</time>
      </trkpt>
      <trkpt lat="45.98428" lon="6.70712">
        <ele>2219.34</ele>
        <time>2021-03-31T09:25:13Z</time>
      </trkpt>
      <trkpt lat="45.98426" lon="6.70712">
        <ele>2219.34</ele>
        <time>2021-03-31T09:25:32Z</time>
      </trkpt>
      <trkpt lat="45.98426" lon="6.70712">
        <ele>2219.34</ele>
        <time>2021-03-31T09:25:53Z</time>
      </trkpt>
      <trkpt lat="45.98429" lon="6.70713">
        <ele>2219.34</ele>
        <time>2021-03-31T09:26:20Z</time>
      </trkpt>
      <trkpt lat="45.98428" lon="6.70711">
        <ele>2219.34</ele>
        <time>2021-03-31T09:26:36Z</time>
      </trkpt>
      <trkpt lat="45.98428" lon="6.70712">
        <ele>2219.34</ele>
        <time>2021-03-31T09:26:52Z</time>
      </trkpt>
      <trkpt lat="45.98427" lon="6.70711">
        <ele>2219.34</ele>
        <time>2021-03-31T09:27:17Z</time>
      </trkpt>
      <trkpt lat="45.98418" lon="6.70717">
        <ele>2219.82</ele>
        <time>2021-03-31T09:27:30Z</time>
      </trkpt>
      <trkpt lat="45.98416" lon="6.70717">
        <ele>2219.82</ele>
        <time>2021-03-31T09:27:32Z</time>
      </trkpt>
      <trkpt lat="45.98414" lon="6.70718">
        <ele>2220.3</ele>
        <time>2021-03-31T09:27:34Z</time>
      </trkpt>
      <trkpt lat="45.98402" lon="6.70723">
        <ele>2220.78</ele>
        <time>2021-03-31T09:27:49Z</time>
      </trkpt>
      <trkpt lat="45.98393" lon="6.70727">
        <ele>2222.71</ele>
        <time>2021-03-31T09:28:03Z</time>
      </trkpt>
      <trkpt lat="45.98382" lon="6.70729">
        <ele>2225.11</ele>
        <time>2021-03-31T09:28:18Z</time>
      </trkpt>
      <trkpt lat="45.9837" lon="6.70728">
        <ele>2227.51</ele>
        <time>2021-03-31T09:28:36Z</time>
      </trkpt>
      <trkpt lat="45.98363" lon="6.70735">
        <ele>2229.43</ele>
        <time>2021-03-31T09:28:51Z</time>
      </trkpt>
      <trkpt lat="45.9836" lon="6.7075">
        <ele>2231.36</ele>
        <time>2021-03-31T09:29:07Z</time>
      </trkpt>
      <trkpt lat="45.98355" lon="6.70762">
        <ele>2233.28</ele>
        <time>2021-03-31T09:29:25Z</time>
      </trkpt>
      <trkpt lat="45.98351" lon="6.70774">
        <ele>2236.16</ele>
        <time>2021-03-31T09:29:42Z</time>
      </trkpt>
      <trkpt lat="45.98341" lon="6.70781">
        <ele>2238.57</ele>
        <time>2021-03-31T09:30:00Z</time>
      </trkpt>
      <trkpt lat="45.98333" lon="6.70788">
        <ele>2240.49</ele>
        <time>2021-03-31T09:30:15Z</time>
      </trkpt>
      <trkpt lat="45.98325" lon="6.70793">
        <ele>2242.89</ele>
        <time>2021-03-31T09:30:30Z</time>
      </trkpt>
      <trkpt lat="45.98315" lon="6.70789">
        <ele>2245.3</ele>
        <time>2021-03-31T09:30:48Z</time>
      </trkpt>
      <trkpt lat="45.98304" lon="6.70787">
        <ele>2247.7</ele>
        <time>2021-03-31T09:31:06Z</time>
      </trkpt>
      <trkpt lat="45.98299" lon="6.70786">
        <ele>2248.18</ele>
        <time>2021-03-31T09:31:13Z</time>
      </trkpt>
      <trkpt lat="45.98288" lon="6.70782">
        <ele>2249.14</ele>
        <time>2021-03-31T09:31:29Z</time>
      </trkpt>
      <trkpt lat="45.98277" lon="6.70784">
        <ele>2252.03</ele>
        <time>2021-03-31T09:31:46Z</time>
      </trkpt>
      <trkpt lat="45.98269" lon="6.70784">
        <ele>2254.43</ele>
        <time>2021-03-31T09:32:01Z</time>
      </trkpt>
      <trkpt lat="45.9826" lon="6.70785">
        <ele>2256.83</ele>
        <time>2021-03-31T09:32:18Z</time>
      </trkpt>
      <trkpt lat="45.98252" lon="6.70787">
        <ele>2259.24</ele>
        <time>2021-03-31T09:32:35Z</time>
      </trkpt>
      <trkpt lat="45.98245" lon="6.70786">
        <ele>2261.64</ele>
        <time>2021-03-31T09:32:52Z</time>
      </trkpt>
      <trkpt lat="45.98235" lon="6.70786">
        <ele>2265</ele>
        <time>2021-03-31T09:33:11Z</time>
      </trkpt>
      <trkpt lat="45.98225" lon="6.70786">
        <ele>2266.45</ele>
        <time>2021-03-31T09:33:26Z</time>
      </trkpt>
      <trkpt lat="45.98215" lon="6.70786">
        <ele>2269.33</ele>
        <time>2021-03-31T09:33:44Z</time>
      </trkpt>
      <trkpt lat="45.98207" lon="6.70785">
        <ele>2270.77</ele>
        <time>2021-03-31T09:33:58Z</time>
      </trkpt>
      <trkpt lat="45.98196" lon="6.70786">
        <ele>2272.69</ele>
        <time>2021-03-31T09:34:15Z</time>
      </trkpt>
      <trkpt lat="45.98185" lon="6.70786">
        <ele>2274.62</ele>
        <time>2021-03-31T09:34:32Z</time>
      </trkpt>
      <trkpt lat="45.98176" lon="6.70788">
        <ele>2277.5</ele>
        <time>2021-03-31T09:34:50Z</time>
      </trkpt>
      <trkpt lat="45.98166" lon="6.70788">
        <ele>2279.9</ele>
        <time>2021-03-31T09:35:05Z</time>
      </trkpt>
      <trkpt lat="45.98156" lon="6.70789">
        <ele>2282.31</ele>
        <time>2021-03-31T09:35:23Z</time>
      </trkpt>
      <trkpt lat="45.98148" lon="6.70792">
        <ele>2284.71</ele>
        <time>2021-03-31T09:35:40Z</time>
      </trkpt>
      <trkpt lat="45.9814" lon="6.70795">
        <ele>2287.11</ele>
        <time>2021-03-31T09:35:56Z</time>
      </trkpt>
      <trkpt lat="45.98131" lon="6.70798">
        <ele>2290</ele>
        <time>2021-03-31T09:36:14Z</time>
      </trkpt>
      <trkpt lat="45.98122" lon="6.70802">
        <ele>2291.92</ele>
        <time>2021-03-31T09:36:32Z</time>
      </trkpt>
      <trkpt lat="45.98112" lon="6.70806">
        <ele>2293.84</ele>
        <time>2021-03-31T09:36:47Z</time>
      </trkpt>
      <trkpt lat="45.981" lon="6.70806">
        <ele>2296.25</ele>
        <time>2021-03-31T09:37:06Z</time>
      </trkpt>
      <trkpt lat="45.98089" lon="6.70804">
        <ele>2298.65</ele>
        <time>2021-03-31T09:37:25Z</time>
      </trkpt>
      <trkpt lat="45.98081" lon="6.70805">
        <ele>2301.53</ele>
        <time>2021-03-31T09:37:42Z</time>
      </trkpt>
      <trkpt lat="45.98073" lon="6.70806">
        <ele>2303.46</ele>
        <time>2021-03-31T09:37:57Z</time>
      </trkpt>
      <trkpt lat="45.98063" lon="6.70808">
        <ele>2306.34</ele>
        <time>2021-03-31T09:38:17Z</time>
      </trkpt>
      <trkpt lat="45.98052" lon="6.7081">
        <ele>2309.22</ele>
        <time>2021-03-31T09:38:39Z</time>
      </trkpt>
      <trkpt lat="45.98042" lon="6.70811">
        <ele>2312.59</ele>
        <time>2021-03-31T09:38:59Z</time>
      </trkpt>
      <trkpt lat="45.98033" lon="6.7081">
        <ele>2315.47</ele>
        <time>2021-03-31T09:39:16Z</time>
      </trkpt>
      <trkpt lat="45.98023" lon="6.70812">
        <ele>2317.88</ele>
        <time>2021-03-31T09:39:36Z</time>
      </trkpt>
      <trkpt lat="45.98016" lon="6.70816">
        <ele>2321.72</ele>
        <time>2021-03-31T09:39:57Z</time>
      </trkpt>
      <trkpt lat="45.98009" lon="6.70834">
        <ele>2325.09</ele>
        <time>2021-03-31T09:40:17Z</time>
      </trkpt>
      <trkpt lat="45.98003" lon="6.70845">
        <ele>2327.49</ele>
        <time>2021-03-31T09:40:35Z</time>
      </trkpt>
      <trkpt lat="45.98" lon="6.70854">
        <ele>2329.89</ele>
        <time>2021-03-31T09:40:53Z</time>
      </trkpt>
      <trkpt lat="45.97993" lon="6.70855">
        <ele>2331.33</ele>
        <time>2021-03-31T09:41:09Z</time>
      </trkpt>
      <trkpt lat="45.9799" lon="6.70857">
        <ele>2332.78</ele>
        <time>2021-03-31T09:41:26Z</time>
      </trkpt>
      <trkpt lat="45.9799" lon="6.70856">
        <ele>2332.78</ele>
        <time>2021-03-31T09:41:54Z</time>
      </trkpt>
      <trkpt lat="45.9799" lon="6.70855">
        <ele>2332.78</ele>
        <time>2021-03-31T09:42:20Z</time>
      </trkpt>
      <trkpt lat="45.97991" lon="6.70856">
        <ele>2332.78</ele>
        <time>2021-03-31T09:42:46Z</time>
      </trkpt>
      <trkpt lat="45.97991" lon="6.70855">
        <ele>2332.78</ele>
        <time>2021-03-31T09:43:12Z</time>
      </trkpt>
      <trkpt lat="45.9799" lon="6.70855">
        <ele>2332.78</ele>
        <time>2021-03-31T09:43:38Z</time>
      </trkpt>
      <trkpt lat="45.97991" lon="6.70856">
        <ele>2332.78</ele>
        <time>2021-03-31T09:44:03Z</time>
      </trkpt>
      <trkpt lat="45.97991" lon="6.70854">
        <ele>2333.26</ele>
        <time>2021-03-31T09:44:24Z</time>
      </trkpt>
      <trkpt lat="45.97992" lon="6.70854">
        <ele>2333.26</ele>
        <time>2021-03-31T09:44:42Z</time>
      </trkpt>
      <trkpt lat="45.97994" lon="6.70854">
        <ele>2333.74</ele>
        <time>2021-03-31T09:45:05Z</time>
      </trkpt>
      <trkpt lat="45.9799" lon="6.70855">
        <ele>2333.74</ele>
        <time>2021-03-31T09:45:27Z</time>
      </trkpt>
      <trkpt lat="45.97989" lon="6.70853">
        <ele>2334.22</ele>
        <time>2021-03-31T09:45:39Z</time>
      </trkpt>
      <trkpt lat="45.97984" lon="6.70849">
        <ele>2335.18</ele>
        <time>2021-03-31T09:45:56Z</time>
      </trkpt>
      <trkpt lat="45.97979" lon="6.70843">
        <ele>2337.1</ele>
        <time>2021-03-31T09:46:07Z</time>
      </trkpt>
      <trkpt lat="45.97969" lon="6.70847">
        <ele>2339.51</ele>
        <time>2021-03-31T09:46:23Z</time>
      </trkpt>
      <trkpt lat="45.97962" lon="6.70848">
        <ele>2341.91</ele>
        <time>2021-03-31T09:46:37Z</time>
      </trkpt>
      <trkpt lat="45.97954" lon="6.70849">
        <ele>2344.31</ele>
        <time>2021-03-31T09:46:52Z</time>
      </trkpt>
      <trkpt lat="45.97945" lon="6.7085">
        <ele>2346.72</ele>
        <time>2021-03-31T09:47:09Z</time>
      </trkpt>
      <trkpt lat="45.97933" lon="6.7085">
        <ele>2349.6</ele>
        <time>2021-03-31T09:47:29Z</time>
      </trkpt>
      <trkpt lat="45.97924" lon="6.70849">
        <ele>2351.52</ele>
        <time>2021-03-31T09:47:47Z</time>
      </trkpt>
      <trkpt lat="45.97918" lon="6.70847">
        <ele>2353.93</ele>
        <time>2021-03-31T09:48:02Z</time>
      </trkpt>
      <trkpt lat="45.97909" lon="6.70845">
        <ele>2356.33</ele>
        <time>2021-03-31T09:48:22Z</time>
      </trkpt>
      <trkpt lat="45.97899" lon="6.70842">
        <ele>2359.21</ele>
        <time>2021-03-31T09:48:40Z</time>
      </trkpt>
      <trkpt lat="45.97892" lon="6.70839">
        <ele>2361.14</ele>
        <time>2021-03-31T09:48:56Z</time>
      </trkpt>
      <trkpt lat="45.97886" lon="6.70839">
        <ele>2363.54</ele>
        <time>2021-03-31T09:49:12Z</time>
      </trkpt>
      <trkpt lat="45.9788" lon="6.70835">
        <ele>2365.46</ele>
        <time>2021-03-31T09:49:29Z</time>
      </trkpt>
      <trkpt lat="45.97874" lon="6.70835">
        <ele>2367.38</ele>
        <time>2021-03-31T09:49:44Z</time>
      </trkpt>
      <trkpt lat="45.97863" lon="6.70836">
        <ele>2369.79</ele>
        <time>2021-03-31T09:50:04Z</time>
      </trkpt>
      <trkpt lat="45.97855" lon="6.70836">
        <ele>2372.67</ele>
        <time>2021-03-31T09:50:23Z</time>
      </trkpt>
      <trkpt lat="45.97846" lon="6.70836">
        <ele>2375.07</ele>
        <time>2021-03-31T09:50:38Z</time>
      </trkpt>
      <trkpt lat="45.97838" lon="6.70836">
        <ele>2377</ele>
        <time>2021-03-31T09:50:55Z</time>
      </trkpt>
      <trkpt lat="45.97834" lon="6.70838">
        <ele>2378.44</ele>
        <time>2021-03-31T09:51:11Z</time>
      </trkpt>
      <trkpt lat="45.97834" lon="6.70839">
        <ele>2378.92</ele>
        <time>2021-03-31T09:51:34Z</time>
      </trkpt>
      <trkpt lat="45.97833" lon="6.70839">
        <ele>2379.4</ele>
        <time>2021-03-31T09:52:01Z</time>
      </trkpt>
      <trkpt lat="45.97829" lon="6.70839">
        <ele>2379.88</ele>
        <time>2021-03-31T09:52:24Z</time>
      </trkpt>
      <trkpt lat="45.97821" lon="6.70835">
        <ele>2381.8</ele>
        <time>2021-03-31T09:52:38Z</time>
      </trkpt>
      <trkpt lat="45.97814" lon="6.7083">
        <ele>2383.73</ele>
        <time>2021-03-31T09:52:51Z</time>
      </trkpt>
      <trkpt lat="45.9781" lon="6.70825">
        <ele>2386.13</ele>
        <time>2021-03-31T09:53:04Z</time>
      </trkpt>
      <trkpt lat="45.97803" lon="6.70818">
        <ele>2388.53</ele>
        <time>2021-03-31T09:53:22Z</time>
      </trkpt>
      <trkpt lat="45.97797" lon="6.70812">
        <ele>2390.94</ele>
        <time>2021-03-31T09:53:38Z</time>
      </trkpt>
      <trkpt lat="45.97791" lon="6.70801">
        <ele>2392.86</ele>
        <time>2021-03-31T09:53:54Z</time>
      </trkpt>
      <trkpt lat="45.97787" lon="6.70792">
        <ele>2395.26</ele>
        <time>2021-03-31T09:54:10Z</time>
      </trkpt>
      <trkpt lat="45.97784" lon="6.70786">
        <ele>2396.22</ele>
        <time>2021-03-31T09:54:22Z</time>
      </trkpt>
      <trkpt lat="45.97779" lon="6.70779">
        <ele>2398.63</ele>
        <time>2021-03-31T09:54:36Z</time>
      </trkpt>
      <trkpt lat="45.97773" lon="6.7077">
        <ele>2400.55</ele>
        <time>2021-03-31T09:54:51Z</time>
      </trkpt>
      <trkpt lat="45.97768" lon="6.7076">
        <ele>2401.99</ele>
        <time>2021-03-31T09:55:08Z</time>
      </trkpt>
      <trkpt lat="45.97764" lon="6.7075">
        <ele>2404.39</ele>
        <time>2021-03-31T09:55:22Z</time>
      </trkpt>
      <trkpt lat="45.9776" lon="6.70741">
        <ele>2406.32</ele>
        <time>2021-03-31T09:55:35Z</time>
      </trkpt>
      <trkpt lat="45.97755" lon="6.70732">
        <ele>2407.76</ele>
        <time>2021-03-31T09:55:49Z</time>
      </trkpt>
      <trkpt lat="45.97751" lon="6.70723">
        <ele>2410.16</ele>
        <time>2021-03-31T09:56:04Z</time>
      </trkpt>
      <trkpt lat="45.97745" lon="6.70715">
        <ele>2412.09</ele>
        <time>2021-03-31T09:56:19Z</time>
      </trkpt>
      <trkpt lat="45.97741" lon="6.70705">
        <ele>2414.01</ele>
        <time>2021-03-31T09:56:34Z</time>
      </trkpt>
      <trkpt lat="45.97736" lon="6.70697">
        <ele>2416.89</ele>
        <time>2021-03-31T09:56:50Z</time>
      </trkpt>
      <trkpt lat="45.97731" lon="6.70685">
        <ele>2419.3</ele>
        <time>2021-03-31T09:57:08Z</time>
      </trkpt>
      <trkpt lat="45.97727" lon="6.70678">
        <ele>2420.74</ele>
        <time>2021-03-31T09:57:21Z</time>
      </trkpt>
      <trkpt lat="45.97725" lon="6.70671">
        <ele>2422.66</ele>
        <time>2021-03-31T09:57:33Z</time>
      </trkpt>
      <trkpt lat="45.97722" lon="6.70664">
        <ele>2424.58</ele>
        <time>2021-03-31T09:57:47Z</time>
      </trkpt>
      <trkpt lat="45.97721" lon="6.70655">
        <ele>2426.5</ele>
        <time>2021-03-31T09:58:00Z</time>
      </trkpt>
      <trkpt lat="45.9772" lon="6.70649">
        <ele>2428.43</ele>
        <time>2021-03-31T09:58:17Z</time>
      </trkpt>
      <trkpt lat="45.97719" lon="6.70643">
        <ele>2429.39</ele>
        <time>2021-03-31T09:58:39Z</time>
      </trkpt>
      <trkpt lat="45.97719" lon="6.70639">
        <ele>2429.87</ele>
        <time>2021-03-31T09:58:58Z</time>
      </trkpt>
      <trkpt lat="45.97719" lon="6.7064">
        <ele>2429.87</ele>
        <time>2021-03-31T09:59:19Z</time>
      </trkpt>
      <trkpt lat="45.9772" lon="6.70639">
        <ele>2429.87</ele>
        <time>2021-03-31T09:59:42Z</time>
      </trkpt>
      <trkpt lat="45.97719" lon="6.70638">
        <ele>2429.87</ele>
        <time>2021-03-31T10:00:02Z</time>
      </trkpt>
      <trkpt lat="45.97718" lon="6.70639">
        <ele>2430.35</ele>
        <time>2021-03-31T10:00:21Z</time>
      </trkpt>
      <trkpt lat="45.9772" lon="6.70639">
        <ele>2430.35</ele>
        <time>2021-03-31T10:00:43Z</time>
      </trkpt>
      <trkpt lat="45.97718" lon="6.70639">
        <ele>2430.35</ele>
        <time>2021-03-31T10:01:11Z</time>
      </trkpt>
      <trkpt lat="45.97718" lon="6.7064">
        <ele>2430.35</ele>
        <time>2021-03-31T10:01:33Z</time>
      </trkpt>
      <trkpt lat="45.97718" lon="6.70628">
        <ele>2431.31</ele>
        <time>2021-03-31T10:01:51Z</time>
      </trkpt>
      <trkpt lat="45.97716" lon="6.70615">
        <ele>2433.71</ele>
        <time>2021-03-31T10:02:04Z</time>
      </trkpt>
      <trkpt lat="45.97714" lon="6.70598">
        <ele>2435.64</ele>
        <time>2021-03-31T10:02:19Z</time>
      </trkpt>
      <trkpt lat="45.97714" lon="6.7059">
        <ele>2436.12</ele>
        <time>2021-03-31T10:02:25Z</time>
      </trkpt>
      <trkpt lat="45.97713" lon="6.70587">
        <ele>2436.12</ele>
        <time>2021-03-31T10:02:27Z</time>
      </trkpt>
      <trkpt lat="45.97711" lon="6.70571">
        <ele>2437.56</ele>
        <time>2021-03-31T10:02:41Z</time>
      </trkpt>
      <trkpt lat="45.97709" lon="6.70553">
        <ele>2439.48</ele>
        <time>2021-03-31T10:02:58Z</time>
      </trkpt>
      <trkpt lat="45.97704" lon="6.70539">
        <ele>2441.41</ele>
        <time>2021-03-31T10:03:13Z</time>
      </trkpt>
      <trkpt lat="45.97697" lon="6.70527">
        <ele>2443.81</ele>
        <time>2021-03-31T10:03:30Z</time>
      </trkpt>
      <trkpt lat="45.97691" lon="6.7052">
        <ele>2447.17</ele>
        <time>2021-03-31T10:03:46Z</time>
      </trkpt>
      <trkpt lat="45.97686" lon="6.70515">
        <ele>2448.62</ele>
        <time>2021-03-31T10:04:00Z</time>
      </trkpt>
      <trkpt lat="45.9768" lon="6.70502">
        <ele>2451.5</ele>
        <time>2021-03-31T10:04:19Z</time>
      </trkpt>
      <trkpt lat="45.97679" lon="6.70494">
        <ele>2452.94</ele>
        <time>2021-03-31T10:04:34Z</time>
      </trkpt>
      <trkpt lat="45.97678" lon="6.70485">
        <ele>2455.34</ele>
        <time>2021-03-31T10:04:49Z</time>
      </trkpt>
      <trkpt lat="45.97675" lon="6.70472">
        <ele>2457.27</ele>
        <time>2021-03-31T10:05:06Z</time>
      </trkpt>
      <trkpt lat="45.97673" lon="6.7046">
        <ele>2458.71</ele>
        <time>2021-03-31T10:05:21Z</time>
      </trkpt>
      <trkpt lat="45.97672" lon="6.70447">
        <ele>2460.63</ele>
        <time>2021-03-31T10:05:35Z</time>
      </trkpt>
      <trkpt lat="45.9767" lon="6.7043">
        <ele>2462.07</ele>
        <time>2021-03-31T10:05:51Z</time>
      </trkpt>
      <trkpt lat="45.97668" lon="6.70418">
        <ele>2463.04</ele>
        <time>2021-03-31T10:06:05Z</time>
      </trkpt>
      <trkpt lat="45.97664" lon="6.70401">
        <ele>2464</ele>
        <time>2021-03-31T10:06:20Z</time>
      </trkpt>
      <trkpt lat="45.97662" lon="6.70384">
        <ele>2464.96</ele>
        <time>2021-03-31T10:06:34Z</time>
      </trkpt>
      <trkpt lat="45.97658" lon="6.70367">
        <ele>2466.4</ele>
        <time>2021-03-31T10:06:51Z</time>
      </trkpt>
      <trkpt lat="45.97652" lon="6.70351">
        <ele>2467.84</ele>
        <time>2021-03-31T10:07:06Z</time>
      </trkpt>
      <trkpt lat="45.97649" lon="6.70337">
        <ele>2468.32</ele>
        <time>2021-03-31T10:07:20Z</time>
      </trkpt>
      <trkpt lat="45.97648" lon="6.70326">
        <ele>2470.73</ele>
        <time>2021-03-31T10:07:35Z</time>
      </trkpt>
      <trkpt lat="45.97646" lon="6.70313">
        <ele>2472.65</ele>
        <time>2021-03-31T10:07:50Z</time>
      </trkpt>
      <trkpt lat="45.97648" lon="6.70299">
        <ele>2474.57</ele>
        <time>2021-03-31T10:08:06Z</time>
      </trkpt>
      <trkpt lat="45.97645" lon="6.70286">
        <ele>2476.01</ele>
        <time>2021-03-31T10:08:21Z</time>
      </trkpt>
      <trkpt lat="45.97642" lon="6.70273">
        <ele>2477.45</ele>
        <time>2021-03-31T10:08:38Z</time>
      </trkpt>
      <trkpt lat="45.9764" lon="6.70259">
        <ele>2479.86</ele>
        <time>2021-03-31T10:08:55Z</time>
      </trkpt>
      <trkpt lat="45.97639" lon="6.70249">
        <ele>2481.3</ele>
        <time>2021-03-31T10:09:08Z</time>
      </trkpt>
      <trkpt lat="45.97637" lon="6.70235">
        <ele>2481.78</ele>
        <time>2021-03-31T10:09:21Z</time>
      </trkpt>
      <trkpt lat="45.97635" lon="6.70221">
        <ele>2483.7</ele>
        <time>2021-03-31T10:09:36Z</time>
      </trkpt>
      <trkpt lat="45.97633" lon="6.70204">
        <ele>2484.66</ele>
        <time>2021-03-31T10:09:51Z</time>
      </trkpt>
      <trkpt lat="45.97632" lon="6.70188">
        <ele>2485.15</ele>
        <time>2021-03-31T10:10:05Z</time>
      </trkpt>
      <trkpt lat="45.97629" lon="6.70171">
        <ele>2486.59</ele>
        <time>2021-03-31T10:10:19Z</time>
      </trkpt>
      <trkpt lat="45.97627" lon="6.70158">
        <ele>2486.59</ele>
        <time>2021-03-31T10:10:34Z</time>
      </trkpt>
      <trkpt lat="45.97627" lon="6.70155">
        <ele>2487.07</ele>
        <time>2021-03-31T10:10:58Z</time>
      </trkpt>
      <trkpt lat="45.97627" lon="6.70157">
        <ele>2487.07</ele>
        <time>2021-03-31T10:11:22Z</time>
      </trkpt>
      <trkpt lat="45.97625" lon="6.70151">
        <ele>2487.55</ele>
        <time>2021-03-31T10:11:46Z</time>
      </trkpt>
      <trkpt lat="45.97621" lon="6.70132">
        <ele>2488.03</ele>
        <time>2021-03-31T10:11:59Z</time>
      </trkpt>
      <trkpt lat="45.97618" lon="6.70115">
        <ele>2489.47</ele>
        <time>2021-03-31T10:12:14Z</time>
      </trkpt>
      <trkpt lat="45.97615" lon="6.701">
        <ele>2491.39</ele>
        <time>2021-03-31T10:12:29Z</time>
      </trkpt>
      <trkpt lat="45.97612" lon="6.70086">
        <ele>2494.28</ele>
        <time>2021-03-31T10:12:47Z</time>
      </trkpt>
      <trkpt lat="45.97608" lon="6.70073">
        <ele>2496.68</ele>
        <time>2021-03-31T10:13:04Z</time>
      </trkpt>
      <trkpt lat="45.97605" lon="6.70061">
        <ele>2499.57</ele>
        <time>2021-03-31T10:13:21Z</time>
      </trkpt>
      <trkpt lat="45.97603" lon="6.70052">
        <ele>2501.97</ele>
        <time>2021-03-31T10:13:38Z</time>
      </trkpt>
      <trkpt lat="45.97599" lon="6.70041">
        <ele>2503.89</ele>
        <time>2021-03-31T10:13:53Z</time>
      </trkpt>
      <trkpt lat="45.97594" lon="6.70033">
        <ele>2506.29</ele>
        <time>2021-03-31T10:14:08Z</time>
      </trkpt>
      <trkpt lat="45.97587" lon="6.70026">
        <ele>2508.22</ele>
        <time>2021-03-31T10:14:26Z</time>
      </trkpt>
      <trkpt lat="45.97579" lon="6.7002">
        <ele>2510.62</ele>
        <time>2021-03-31T10:14:42Z</time>
      </trkpt>
      <trkpt lat="45.97573" lon="6.70012">
        <ele>2512.54</ele>
        <time>2021-03-31T10:15:00Z</time>
      </trkpt>
      <trkpt lat="45.97573" lon="6.70004">
        <ele>2513.98</ele>
        <time>2021-03-31T10:15:13Z</time>
      </trkpt>
      <trkpt lat="45.97575" lon="6.69995">
        <ele>2516.39</ele>
        <time>2021-03-31T10:15:29Z</time>
      </trkpt>
      <trkpt lat="45.97576" lon="6.69987">
        <ele>2518.31</ele>
        <time>2021-03-31T10:15:43Z</time>
      </trkpt>
      <trkpt lat="45.97577" lon="6.69976">
        <ele>2520.71</ele>
        <time>2021-03-31T10:16:01Z</time>
      </trkpt>
      <trkpt lat="45.97578" lon="6.69964">
        <ele>2523.6</ele>
        <time>2021-03-31T10:16:21Z</time>
      </trkpt>
      <trkpt lat="45.97579" lon="6.69955">
        <ele>2525.52</ele>
        <time>2021-03-31T10:16:36Z</time>
      </trkpt>
      <trkpt lat="45.97576" lon="6.69944">
        <ele>2528.89</ele>
        <time>2021-03-31T10:16:58Z</time>
      </trkpt>
      <trkpt lat="45.97574" lon="6.69935">
        <ele>2531.29</ele>
        <time>2021-03-31T10:17:17Z</time>
      </trkpt>
      <trkpt lat="45.97571" lon="6.69928">
        <ele>2533.21</ele>
        <time>2021-03-31T10:17:31Z</time>
      </trkpt>
      <trkpt lat="45.97569" lon="6.69926">
        <ele>2534.17</ele>
        <time>2021-03-31T10:17:57Z</time>
      </trkpt>
      <trkpt lat="45.97561" lon="6.69921">
        <ele>2536.1</ele>
        <time>2021-03-31T10:18:13Z</time>
      </trkpt>
      <trkpt lat="45.97559" lon="6.69909">
        <ele>2538.5</ele>
        <time>2021-03-31T10:18:31Z</time>
      </trkpt>
      <trkpt lat="45.97555" lon="6.69899">
        <ele>2541.38</ele>
        <time>2021-03-31T10:18:52Z</time>
      </trkpt>
      <trkpt lat="45.97556" lon="6.69892">
        <ele>2543.31</ele>
        <time>2021-03-31T10:19:06Z</time>
      </trkpt>
      <trkpt lat="45.97552" lon="6.69884">
        <ele>2545.71</ele>
        <time>2021-03-31T10:19:25Z</time>
      </trkpt>
      <trkpt lat="45.97547" lon="6.69877">
        <ele>2548.11</ele>
        <time>2021-03-31T10:19:43Z</time>
      </trkpt>
      <trkpt lat="45.97541" lon="6.69868">
        <ele>2550.03</ele>
        <time>2021-03-31T10:20:00Z</time>
      </trkpt>
      <trkpt lat="45.97537" lon="6.69861">
        <ele>2551.96</ele>
        <time>2021-03-31T10:20:18Z</time>
      </trkpt>
      <trkpt lat="45.97532" lon="6.69853">
        <ele>2553.4</ele>
        <time>2021-03-31T10:20:32Z</time>
      </trkpt>
      <trkpt lat="45.97528" lon="6.69845">
        <ele>2555.8</ele>
        <time>2021-03-31T10:20:49Z</time>
      </trkpt>
      <trkpt lat="45.97525" lon="6.69837">
        <ele>2557.73</ele>
        <time>2021-03-31T10:21:04Z</time>
      </trkpt>
      <trkpt lat="45.97521" lon="6.6983">
        <ele>2559.17</ele>
        <time>2021-03-31T10:21:21Z</time>
      </trkpt>
      <trkpt lat="45.97519" lon="6.69826">
        <ele>2560.13</ele>
        <time>2021-03-31T10:21:35Z</time>
      </trkpt>
      <trkpt lat="45.97519" lon="6.69825">
        <ele>2560.61</ele>
        <time>2021-03-31T10:22:03Z</time>
      </trkpt>
      <trkpt lat="45.9752" lon="6.69825">
        <ele>2560.61</ele>
        <time>2021-03-31T10:22:23Z</time>
      </trkpt>
      <trkpt lat="45.9752" lon="6.69823">
        <ele>2561.09</ele>
        <time>2021-03-31T10:22:42Z</time>
      </trkpt>
      <trkpt lat="45.97518" lon="6.69825">
        <ele>2561.09</ele>
        <time>2021-03-31T10:23:01Z</time>
      </trkpt>
      <trkpt lat="45.97518" lon="6.69825">
        <ele>2561.09</ele>
        <time>2021-03-31T10:23:22Z</time>
      </trkpt>
      <trkpt lat="45.97518" lon="6.69824">
        <ele>2561.09</ele>
        <time>2021-03-31T10:23:41Z</time>
      </trkpt>
      <trkpt lat="45.97518" lon="6.69824">
        <ele>2561.09</ele>
        <time>2021-03-31T10:23:55Z</time>
      </trkpt>
      <trkpt lat="45.97518" lon="6.69825">
        <ele>2561.09</ele>
        <time>2021-03-31T10:24:12Z</time>
      </trkpt>
      <trkpt lat="45.97519" lon="6.69825">
        <ele>2561.09</ele>
        <time>2021-03-31T10:24:39Z</time>
      </trkpt>
      <trkpt lat="45.97519" lon="6.69824">
        <ele>2561.09</ele>
        <time>2021-03-31T10:25:00Z</time>
      </trkpt>
      <trkpt lat="45.97518" lon="6.69824">
        <ele>2561.09</ele>
        <time>2021-03-31T10:25:24Z</time>
      </trkpt>
      <trkpt lat="45.97517" lon="6.69825">
        <ele>2561.09</ele>
        <time>2021-03-31T10:25:46Z</time>
      </trkpt>
      <trkpt lat="45.97517" lon="6.69825">
        <ele>2561.09</ele>
        <time>2021-03-31T10:26:11Z</time>
      </trkpt>
      <trkpt lat="45.97518" lon="6.69824">
        <ele>2561.09</ele>
        <time>2021-03-31T10:26:34Z</time>
      </trkpt>
      <trkpt lat="45.97518" lon="6.69826">
        <ele>2561.09</ele>
        <time>2021-03-31T10:26:56Z</time>
      </trkpt>
      <trkpt lat="45.97518" lon="6.69825">
        <ele>2561.09</ele>
        <time>2021-03-31T10:27:19Z</time>
      </trkpt>
      <trkpt lat="45.97517" lon="6.69826">
        <ele>2561.09</ele>
        <time>2021-03-31T10:27:40Z</time>
      </trkpt>
      <trkpt lat="45.97518" lon="6.69826">
        <ele>2561.09</ele>
        <time>2021-03-31T10:28:08Z</time>
      </trkpt>
      <trkpt lat="45.97519" lon="6.69825">
        <ele>2561.57</ele>
        <time>2021-03-31T10:28:33Z</time>
      </trkpt>
      <trkpt lat="45.97517" lon="6.69827">
        <ele>2561.57</ele>
        <time>2021-03-31T10:28:59Z</time>
      </trkpt>
      <trkpt lat="45.97516" lon="6.69826">
        <ele>2561.57</ele>
        <time>2021-03-31T10:29:23Z</time>
      </trkpt>
      <trkpt lat="45.97513" lon="6.69826">
        <ele>2561.57</ele>
        <time>2021-03-31T10:29:38Z</time>
      </trkpt>
      <trkpt lat="45.97516" lon="6.69827">
        <ele>2561.57</ele>
        <time>2021-03-31T10:30:04Z</time>
      </trkpt>
      <trkpt lat="45.97518" lon="6.69825">
        <ele>2561.57</ele>
        <time>2021-03-31T10:30:26Z</time>
      </trkpt>
      <trkpt lat="45.97519" lon="6.69825">
        <ele>2561.57</ele>
        <time>2021-03-31T10:30:46Z</time>
      </trkpt>
      <trkpt lat="45.97517" lon="6.69828">
        <ele>2561.57</ele>
        <time>2021-03-31T10:31:10Z</time>
      </trkpt>
      <trkpt lat="45.97518" lon="6.69824">
        <ele>2561.57</ele>
        <time>2021-03-31T10:31:27Z</time>
      </trkpt>
      <trkpt lat="45.97517" lon="6.69822">
        <ele>2561.57</ele>
        <time>2021-03-31T10:31:54Z</time>
      </trkpt>
      <trkpt lat="45.97517" lon="6.69822">
        <ele>2561.57</ele>
        <time>2021-03-31T10:32:19Z</time>
      </trkpt>
      <trkpt lat="45.97517" lon="6.69823">
        <ele>2562.05</ele>
        <time>2021-03-31T10:32:35Z</time>
      </trkpt>
      <trkpt lat="45.97517" lon="6.69823">
        <ele>2562.05</ele>
        <time>2021-03-31T10:32:55Z</time>
      </trkpt>
      <trkpt lat="45.97517" lon="6.69825">
        <ele>2562.05</ele>
        <time>2021-03-31T10:33:05Z</time>
      </trkpt>
      <trkpt lat="45.97523" lon="6.69834">
        <ele>2560.61</ele>
        <time>2021-03-31T10:33:11Z</time>
      </trkpt>
      <trkpt lat="45.97525" lon="6.69836">
        <ele>2560.61</ele>
        <time>2021-03-31T10:33:12Z</time>
      </trkpt>
      <trkpt lat="45.97522" lon="6.69844">
        <ele>2556.28</ele>
        <time>2021-03-31T10:33:15Z</time>
      </trkpt>
      <trkpt lat="45.97527" lon="6.69852">
        <ele>2553.88</ele>
        <time>2021-03-31T10:33:18Z</time>
      </trkpt>
      <trkpt lat="45.97523" lon="6.69858">
        <ele>2550.51</ele>
        <time>2021-03-31T10:33:21Z</time>
      </trkpt>
      <trkpt lat="45.9752" lon="6.69859">
        <ele>2549.07</ele>
        <time>2021-03-31T10:33:23Z</time>
      </trkpt>
      <trkpt lat="45.97522" lon="6.6987">
        <ele>2545.71</ele>
        <time>2021-03-31T10:33:25Z</time>
      </trkpt>
      <trkpt lat="45.97526" lon="6.69873">
        <ele>2545.23</ele>
        <time>2021-03-31T10:33:26Z</time>
      </trkpt>
      <trkpt lat="45.97555" lon="6.69894">
        <ele>2543.31</ele>
        <time>2021-03-31T10:33:40Z</time>
      </trkpt>
      <trkpt lat="45.97554" lon="6.69896">
        <ele>2543.31</ele>
        <time>2021-03-31T10:33:52Z</time>
      </trkpt>
      <trkpt lat="45.97557" lon="6.69915">
        <ele>2539.46</ele>
        <time>2021-03-31T10:33:57Z</time>
      </trkpt>
      <trkpt lat="45.97561" lon="6.69934">
        <ele>2535.61</ele>
        <time>2021-03-31T10:34:01Z</time>
      </trkpt>
      <trkpt lat="45.97562" lon="6.69945">
        <ele>2531.77</ele>
        <time>2021-03-31T10:34:03Z</time>
      </trkpt>
      <trkpt lat="45.97569" lon="6.69953">
        <ele>2531.29</ele>
        <time>2021-03-31T10:34:05Z</time>
      </trkpt>
      <trkpt lat="45.97573" lon="6.69956">
        <ele>2528.4</ele>
        <time>2021-03-31T10:34:06Z</time>
      </trkpt>
      <trkpt lat="45.97581" lon="6.69976">
        <ele>2522.16</ele>
        <time>2021-03-31T10:34:11Z</time>
      </trkpt>
      <trkpt lat="45.97584" lon="6.69982">
        <ele>2522.16</ele>
        <time>2021-03-31T10:34:12Z</time>
      </trkpt>
      <trkpt lat="45.97584" lon="6.69994">
        <ele>2517.35</ele>
        <time>2021-03-31T10:34:14Z</time>
      </trkpt>
      <trkpt lat="45.97587" lon="6.69999">
        <ele>2517.35</ele>
        <time>2021-03-31T10:34:15Z</time>
      </trkpt>
      <trkpt lat="45.97588" lon="6.7001">
        <ele>2513.98</ele>
        <time>2021-03-31T10:34:17Z</time>
      </trkpt>
      <trkpt lat="45.97594" lon="6.70021">
        <ele>2512.06</ele>
        <time>2021-03-31T10:34:19Z</time>
      </trkpt>
      <trkpt lat="45.97601" lon="6.7003">
        <ele>2508.7</ele>
        <time>2021-03-31T10:34:21Z</time>
      </trkpt>
      <trkpt lat="45.97602" lon="6.7004">
        <ele>2506.77</ele>
        <time>2021-03-31T10:34:23Z</time>
      </trkpt>
      <trkpt lat="45.97608" lon="6.70064">
        <ele>2501.01</ele>
        <time>2021-03-31T10:34:28Z</time>
      </trkpt>
      <trkpt lat="45.97612" lon="6.70066">
        <ele>2500.53</ele>
        <time>2021-03-31T10:34:29Z</time>
      </trkpt>
      <trkpt lat="45.97619" lon="6.70087">
        <ele>2496.68</ele>
        <time>2021-03-31T10:34:32Z</time>
      </trkpt>
      <trkpt lat="45.97631" lon="6.70128">
        <ele>2489.47</ele>
        <time>2021-03-31T10:34:36Z</time>
      </trkpt>
      <trkpt lat="45.97633" lon="6.7014">
        <ele>2489.47</ele>
        <time>2021-03-31T10:34:37Z</time>
      </trkpt>
      <trkpt lat="45.97634" lon="6.7017">
        <ele>2490.43</ele>
        <time>2021-03-31T10:34:40Z</time>
      </trkpt>
      <trkpt lat="45.97642" lon="6.70193">
        <ele>2490.43</ele>
        <time>2021-03-31T10:34:48Z</time>
      </trkpt>
      <trkpt lat="45.97642" lon="6.70193">
        <ele>2490.43</ele>
        <time>2021-03-31T10:35:08Z</time>
      </trkpt>
      <trkpt lat="45.97642" lon="6.70193">
        <ele>2490.43</ele>
        <time>2021-03-31T10:35:28Z</time>
      </trkpt>
      <trkpt lat="45.97642" lon="6.70194">
        <ele>2489.47</ele>
        <time>2021-03-31T10:35:53Z</time>
      </trkpt>
      <trkpt lat="45.97641" lon="6.70193">
        <ele>2489.47</ele>
        <time>2021-03-31T10:36:12Z</time>
      </trkpt>
      <trkpt lat="45.97642" lon="6.70192">
        <ele>2489.47</ele>
        <time>2021-03-31T10:36:35Z</time>
      </trkpt>
      <trkpt lat="45.97642" lon="6.70191">
        <ele>2489.95</ele>
        <time>2021-03-31T10:36:55Z</time>
      </trkpt>
      <trkpt lat="45.97643" lon="6.70191">
        <ele>2489.95</ele>
        <time>2021-03-31T10:37:23Z</time>
      </trkpt>
      <trkpt lat="45.97643" lon="6.70189">
        <ele>2489.95</ele>
        <time>2021-03-31T10:37:40Z</time>
      </trkpt>
      <trkpt lat="45.97643" lon="6.7019">
        <ele>2489.95</ele>
        <time>2021-03-31T10:38:07Z</time>
      </trkpt>
      <trkpt lat="45.97642" lon="6.7019">
        <ele>2489.95</ele>
        <time>2021-03-31T10:38:37Z</time>
      </trkpt>
      <trkpt lat="45.97643" lon="6.70189">
        <ele>2489.95</ele>
        <time>2021-03-31T10:39:01Z</time>
      </trkpt>
      <trkpt lat="45.97642" lon="6.70189">
        <ele>2489.95</ele>
        <time>2021-03-31T10:39:25Z</time>
      </trkpt>
      <trkpt lat="45.97642" lon="6.70189">
        <ele>2490.43</ele>
        <time>2021-03-31T10:40:01Z</time>
      </trkpt>
      <trkpt lat="45.97643" lon="6.70189">
        <ele>2490.43</ele>
        <time>2021-03-31T10:40:22Z</time>
      </trkpt>
      <trkpt lat="45.97642" lon="6.70189">
        <ele>2490.43</ele>
        <time>2021-03-31T10:40:46Z</time>
      </trkpt>
      <trkpt lat="45.97643" lon="6.70189">
        <ele>2490.91</ele>
        <time>2021-03-31T10:41:15Z</time>
      </trkpt>
      <trkpt lat="45.97642" lon="6.70189">
        <ele>2491.87</ele>
        <time>2021-03-31T10:41:38Z</time>
      </trkpt>
      <trkpt lat="45.97642" lon="6.7019">
        <ele>2491.87</ele>
        <time>2021-03-31T10:42:10Z</time>
      </trkpt>
      <trkpt lat="45.97641" lon="6.70189">
        <ele>2492.36</ele>
        <time>2021-03-31T10:42:32Z</time>
      </trkpt>
      <trkpt lat="45.97641" lon="6.7019">
        <ele>2492.36</ele>
        <time>2021-03-31T10:43:04Z</time>
      </trkpt>
      <trkpt lat="45.97641" lon="6.70189">
        <ele>2492.36</ele>
        <time>2021-03-31T10:43:23Z</time>
      </trkpt>
      <trkpt lat="45.97642" lon="6.70189">
        <ele>2492.36</ele>
        <time>2021-03-31T10:43:50Z</time>
      </trkpt>
      <trkpt lat="45.97642" lon="6.70189">
        <ele>2492.84</ele>
        <time>2021-03-31T10:44:23Z</time>
      </trkpt>
      <trkpt lat="45.97643" lon="6.7019">
        <ele>2492.84</ele>
        <time>2021-03-31T10:44:53Z</time>
      </trkpt>
      <trkpt lat="45.97642" lon="6.7019">
        <ele>2492.84</ele>
        <time>2021-03-31T10:45:25Z</time>
      </trkpt>
      <trkpt lat="45.97642" lon="6.7019">
        <ele>2493.32</ele>
        <time>2021-03-31T10:45:50Z</time>
      </trkpt>
      <trkpt lat="45.97642" lon="6.70189">
        <ele>2493.32</ele>
        <time>2021-03-31T10:46:23Z</time>
      </trkpt>
      <trkpt lat="45.97643" lon="6.7019">
        <ele>2493.32</ele>
        <time>2021-03-31T10:46:54Z</time>
      </trkpt>
      <trkpt lat="45.97643" lon="6.70191">
        <ele>2493.8</ele>
        <time>2021-03-31T10:47:31Z</time>
      </trkpt>
      <trkpt lat="45.97643" lon="6.70191">
        <ele>2494.28</ele>
        <time>2021-03-31T10:47:56Z</time>
      </trkpt>
      <trkpt lat="45.97643" lon="6.70191">
        <ele>2494.28</ele>
        <time>2021-03-31T10:48:19Z</time>
      </trkpt>
      <trkpt lat="45.97643" lon="6.70191">
        <ele>2494.28</ele>
        <time>2021-03-31T10:48:44Z</time>
      </trkpt>
      <trkpt lat="45.97644" lon="6.70191">
        <ele>2494.76</ele>
        <time>2021-03-31T10:49:14Z</time>
      </trkpt>
      <trkpt lat="45.97644" lon="6.70192">
        <ele>2494.76</ele>
        <time>2021-03-31T10:49:46Z</time>
      </trkpt>
      <trkpt lat="45.97645" lon="6.70192">
        <ele>2494.76</ele>
        <time>2021-03-31T10:50:18Z</time>
      </trkpt>
      <trkpt lat="45.97646" lon="6.70192">
        <ele>2495.24</ele>
        <time>2021-03-31T10:50:45Z</time>
      </trkpt>
      <trkpt lat="45.97645" lon="6.70192">
        <ele>2495.24</ele>
        <time>2021-03-31T10:51:15Z</time>
      </trkpt>
      <trkpt lat="45.97645" lon="6.70191">
        <ele>2495.72</ele>
        <time>2021-03-31T10:51:45Z</time>
      </trkpt>
      <trkpt lat="45.97645" lon="6.70191">
        <ele>2495.72</ele>
        <time>2021-03-31T10:52:07Z</time>
      </trkpt>
      <trkpt lat="45.97645" lon="6.70192">
        <ele>2495.72</ele>
        <time>2021-03-31T10:52:35Z</time>
      </trkpt>
      <trkpt lat="45.97645" lon="6.70191">
        <ele>2495.72</ele>
        <time>2021-03-31T10:53:00Z</time>
      </trkpt>
      <trkpt lat="45.97645" lon="6.70191">
        <ele>2495.72</ele>
        <time>2021-03-31T10:53:22Z</time>
      </trkpt>
      <trkpt lat="45.97645" lon="6.70192">
        <ele>2495.72</ele>
        <time>2021-03-31T10:53:44Z</time>
      </trkpt>
      <trkpt lat="45.97644" lon="6.70191">
        <ele>2496.2</ele>
        <time>2021-03-31T10:54:14Z</time>
      </trkpt>
      <trkpt lat="45.97644" lon="6.7019">
        <ele>2496.2</ele>
        <time>2021-03-31T10:54:42Z</time>
      </trkpt>
      <trkpt lat="45.97643" lon="6.7019">
        <ele>2496.2</ele>
        <time>2021-03-31T10:55:10Z</time>
      </trkpt>
      <trkpt lat="45.97643" lon="6.70191">
        <ele>2494.76</ele>
        <time>2021-03-31T10:55:26Z</time>
      </trkpt>
      <trkpt lat="45.97643" lon="6.70191">
        <ele>2494.76</ele>
        <time>2021-03-31T10:55:48Z</time>
      </trkpt>
      <trkpt lat="45.97645" lon="6.70189">
        <ele>2494.76</ele>
        <time>2021-03-31T10:56:04Z</time>
      </trkpt>
      <trkpt lat="45.97645" lon="6.70191">
        <ele>2494.76</ele>
        <time>2021-03-31T10:56:26Z</time>
      </trkpt>
      <trkpt lat="45.97646" lon="6.70192">
        <ele>2494.76</ele>
        <time>2021-03-31T10:56:49Z</time>
      </trkpt>
      <trkpt lat="45.97644" lon="6.7019">
        <ele>2494.76</ele>
        <time>2021-03-31T10:57:07Z</time>
      </trkpt>
      <trkpt lat="45.97644" lon="6.7019">
        <ele>2494.76</ele>
        <time>2021-03-31T10:57:30Z</time>
      </trkpt>
      <trkpt lat="45.97643" lon="6.70191">
        <ele>2494.76</ele>
        <time>2021-03-31T10:57:51Z</time>
      </trkpt>
      <trkpt lat="45.97643" lon="6.70191">
        <ele>2494.76</ele>
        <time>2021-03-31T10:58:12Z</time>
      </trkpt>
      <trkpt lat="45.97644" lon="6.70192">
        <ele>2494.76</ele>
        <time>2021-03-31T10:58:34Z</time>
      </trkpt>
      <trkpt lat="45.97644" lon="6.70192">
        <ele>2494.76</ele>
        <time>2021-03-31T10:59:02Z</time>
      </trkpt>
      <trkpt lat="45.97644" lon="6.70192">
        <ele>2494.76</ele>
        <time>2021-03-31T10:59:22Z</time>
      </trkpt>
      <trkpt lat="45.97644" lon="6.70192">
        <ele>2494.76</ele>
        <time>2021-03-31T10:59:47Z</time>
      </trkpt>
      <trkpt lat="45.97645" lon="6.70191">
        <ele>2494.76</ele>
        <time>2021-03-31T11:00:11Z</time>
      </trkpt>
      <trkpt lat="45.97644" lon="6.70192">
        <ele>2494.76</ele>
        <time>2021-03-31T11:00:28Z</time>
      </trkpt>
      <trkpt lat="45.97644" lon="6.70194">
        <ele>2494.76</ele>
        <time>2021-03-31T11:00:48Z</time>
      </trkpt>
      <trkpt lat="45.97644" lon="6.70192">
        <ele>2494.76</ele>
        <time>2021-03-31T11:01:04Z</time>
      </trkpt>
      <trkpt lat="45.97645" lon="6.70191">
        <ele>2494.76</ele>
        <time>2021-03-31T11:01:29Z</time>
      </trkpt>
      <trkpt lat="45.97644" lon="6.70191">
        <ele>2494.76</ele>
        <time>2021-03-31T11:01:53Z</time>
      </trkpt>
      <trkpt lat="45.97645" lon="6.70191">
        <ele>2494.76</ele>
        <time>2021-03-31T11:02:26Z</time>
      </trkpt>
      <trkpt lat="45.97645" lon="6.7019">
        <ele>2494.76</ele>
        <time>2021-03-31T11:02:47Z</time>
      </trkpt>
      <trkpt lat="45.97644" lon="6.70191">
        <ele>2494.76</ele>
        <time>2021-03-31T11:02:56Z</time>
      </trkpt>
      <trkpt lat="45.97642" lon="6.70192">
        <ele>2494.76</ele>
        <time>2021-03-31T11:03:21Z</time>
      </trkpt>
      <trkpt lat="45.97645" lon="6.70194">
        <ele>2494.76</ele>
        <time>2021-03-31T11:03:37Z</time>
      </trkpt>
      <trkpt lat="45.97644" lon="6.70194">
        <ele>2494.76</ele>
        <time>2021-03-31T11:03:56Z</time>
      </trkpt>
      <trkpt lat="45.97644" lon="6.70194">
        <ele>2494.76</ele>
        <time>2021-03-31T11:04:13Z</time>
      </trkpt>
      <trkpt lat="45.97646" lon="6.70195">
        <ele>2494.76</ele>
        <time>2021-03-31T11:04:43Z</time>
      </trkpt>
      <trkpt lat="45.97646" lon="6.70195">
        <ele>2494.76</ele>
        <time>2021-03-31T11:05:10Z</time>
      </trkpt>
      <trkpt lat="45.97646" lon="6.70196">
        <ele>2494.76</ele>
        <time>2021-03-31T11:05:18Z</time>
      </trkpt>
      <trkpt lat="45.9765" lon="6.7022">
        <ele>2494.28</ele>
        <time>2021-03-31T11:05:29Z</time>
      </trkpt>
      <trkpt lat="45.97649" lon="6.70226">
        <ele>2494.28</ele>
        <time>2021-03-31T11:05:40Z</time>
      </trkpt>
      <trkpt lat="45.97654" lon="6.70254">
        <ele>2491.39</ele>
        <time>2021-03-31T11:05:50Z</time>
      </trkpt>
      <trkpt lat="45.97644" lon="6.70265">
        <ele>2488.51</ele>
        <time>2021-03-31T11:05:54Z</time>
      </trkpt>
      <trkpt lat="45.97645" lon="6.70278">
        <ele>2484.66</ele>
        <time>2021-03-31T11:05:56Z</time>
      </trkpt>
      <trkpt lat="45.97653" lon="6.70298">
        <ele>2483.22</ele>
        <time>2021-03-31T11:05:59Z</time>
      </trkpt>
      <trkpt lat="45.97668" lon="6.70322">
        <ele>2484.18</ele>
        <time>2021-03-31T11:06:08Z</time>
      </trkpt>
      <trkpt lat="45.97671" lon="6.70325">
        <ele>2482.26</ele>
        <time>2021-03-31T11:06:09Z</time>
      </trkpt>
      <trkpt lat="45.97677" lon="6.70343">
        <ele>2479.86</ele>
        <time>2021-03-31T11:06:12Z</time>
      </trkpt>
      <trkpt lat="45.9768" lon="6.70389">
        <ele>2476.97</ele>
        <time>2021-03-31T11:06:19Z</time>
      </trkpt>
      <trkpt lat="45.97681" lon="6.70415">
        <ele>2473.61</ele>
        <time>2021-03-31T11:06:22Z</time>
      </trkpt>
      <trkpt lat="45.97678" lon="6.70429">
        <ele>2471.21</ele>
        <time>2021-03-31T11:06:24Z</time>
      </trkpt>
      <trkpt lat="45.9768" lon="6.70464">
        <ele>2466.4</ele>
        <time>2021-03-31T11:06:29Z</time>
      </trkpt>
      <trkpt lat="45.97678" lon="6.70487">
        <ele>2463.52</ele>
        <time>2021-03-31T11:06:33Z</time>
      </trkpt>
      <trkpt lat="45.97681" lon="6.70491">
        <ele>2462.07</ele>
        <time>2021-03-31T11:06:34Z</time>
      </trkpt>
      <trkpt lat="45.97687" lon="6.70497">
        <ele>2461.59</ele>
        <time>2021-03-31T11:06:36Z</time>
      </trkpt>
      <trkpt lat="45.97686" lon="6.70503">
        <ele>2460.63</ele>
        <time>2021-03-31T11:06:43Z</time>
      </trkpt>
      <trkpt lat="45.97686" lon="6.70503">
        <ele>2460.63</ele>
        <time>2021-03-31T11:06:47Z</time>
      </trkpt>
      <trkpt lat="45.97685" lon="6.70513">
        <ele>2457.27</ele>
        <time>2021-03-31T11:06:50Z</time>
      </trkpt>
      <trkpt lat="45.97703" lon="6.7053">
        <ele>2454.38</ele>
        <time>2021-03-31T11:06:54Z</time>
      </trkpt>
      <trkpt lat="45.97705" lon="6.7054">
        <ele>2450.54</ele>
        <time>2021-03-31T11:06:55Z</time>
      </trkpt>
      <trkpt lat="45.97708" lon="6.70551">
        <ele>2448.13</ele>
        <time>2021-03-31T11:06:56Z</time>
      </trkpt>
      <trkpt lat="45.97716" lon="6.7057">
        <ele>2446.69</ele>
        <time>2021-03-31T11:06:58Z</time>
      </trkpt>
      <trkpt lat="45.97721" lon="6.70588">
        <ele>2445.73</ele>
        <time>2021-03-31T11:07:00Z</time>
      </trkpt>
      <trkpt lat="45.97723" lon="6.70614">
        <ele>2444.29</ele>
        <time>2021-03-31T11:07:03Z</time>
      </trkpt>
      <trkpt lat="45.97731" lon="6.70642">
        <ele>2441.41</ele>
        <time>2021-03-31T11:07:07Z</time>
      </trkpt>
      <trkpt lat="45.97742" lon="6.70656">
        <ele>2440.44</ele>
        <time>2021-03-31T11:07:11Z</time>
      </trkpt>
      <trkpt lat="45.97738" lon="6.70665">
        <ele>2437.08</ele>
        <time>2021-03-31T11:07:14Z</time>
      </trkpt>
      <trkpt lat="45.97731" lon="6.70675">
        <ele>2432.75</ele>
        <time>2021-03-31T11:07:18Z</time>
      </trkpt>
      <trkpt lat="45.97739" lon="6.70685">
        <ele>2430.83</ele>
        <time>2021-03-31T11:07:20Z</time>
      </trkpt>
      <trkpt lat="45.97757" lon="6.70695">
        <ele>2428.91</ele>
        <time>2021-03-31T11:07:24Z</time>
      </trkpt>
      <trkpt lat="45.9777" lon="6.70698">
        <ele>2427.47</ele>
        <time>2021-03-31T11:07:27Z</time>
      </trkpt>
      <trkpt lat="45.97785" lon="6.70701">
        <ele>2426.5</ele>
        <time>2021-03-31T11:07:31Z</time>
      </trkpt>
      <trkpt lat="45.97784" lon="6.70725">
        <ele>2422.18</ele>
        <time>2021-03-31T11:07:36Z</time>
      </trkpt>
      <trkpt lat="45.97792" lon="6.70736">
        <ele>2418.81</ele>
        <time>2021-03-31T11:07:38Z</time>
      </trkpt>
      <trkpt lat="45.9779" lon="6.70757">
        <ele>2415.45</ele>
        <time>2021-03-31T11:07:42Z</time>
      </trkpt>
      <trkpt lat="45.97794" lon="6.70773">
        <ele>2411.6</ele>
        <time>2021-03-31T11:07:45Z</time>
      </trkpt>
      <trkpt lat="45.97796" lon="6.7079">
        <ele>2408.24</ele>
        <time>2021-03-31T11:07:49Z</time>
      </trkpt>
      <trkpt lat="45.97795" lon="6.70804">
        <ele>2404.88</ele>
        <time>2021-03-31T11:07:52Z</time>
      </trkpt>
      <trkpt lat="45.97807" lon="6.70805">
        <ele>2404.88</ele>
        <time>2021-03-31T11:07:59Z</time>
      </trkpt>
      <trkpt lat="45.97807" lon="6.70805">
        <ele>2404.39</ele>
        <time>2021-03-31T11:08:00Z</time>
      </trkpt>
      <trkpt lat="45.97815" lon="6.70817">
        <ele>2401.03</ele>
        <time>2021-03-31T11:08:06Z</time>
      </trkpt>
      <trkpt lat="45.97811" lon="6.70828">
        <ele>2397.67</ele>
        <time>2021-03-31T11:08:08Z</time>
      </trkpt>
      <trkpt lat="45.97818" lon="6.70835">
        <ele>2394.78</ele>
        <time>2021-03-31T11:08:10Z</time>
      </trkpt>
      <trkpt lat="45.97828" lon="6.70849">
        <ele>2390.94</ele>
        <time>2021-03-31T11:08:14Z</time>
      </trkpt>
      <trkpt lat="45.97835" lon="6.70853">
        <ele>2387.57</ele>
        <time>2021-03-31T11:08:16Z</time>
      </trkpt>
      <trkpt lat="45.97837" lon="6.70851">
        <ele>2387.57</ele>
        <time>2021-03-31T11:08:17Z</time>
      </trkpt>
      <trkpt lat="45.97846" lon="6.7084">
        <ele>2387.09</ele>
        <time>2021-03-31T11:08:26Z</time>
      </trkpt>
      <trkpt lat="45.97847" lon="6.7084">
        <ele>2387.57</ele>
        <time>2021-03-31T11:08:48Z</time>
      </trkpt>
      <trkpt lat="45.97847" lon="6.70841">
        <ele>2387.57</ele>
        <time>2021-03-31T11:08:56Z</time>
      </trkpt>
      <trkpt lat="45.97859" lon="6.70833">
        <ele>2386.61</ele>
        <time>2021-03-31T11:09:03Z</time>
      </trkpt>
      <trkpt lat="45.97869" lon="6.70828">
        <ele>2385.65</ele>
        <time>2021-03-31T11:09:07Z</time>
      </trkpt>
      <trkpt lat="45.97874" lon="6.70837">
        <ele>2381.8</ele>
        <time>2021-03-31T11:09:10Z</time>
      </trkpt>
      <trkpt lat="45.97877" lon="6.7085">
        <ele>2377.48</ele>
        <time>2021-03-31T11:09:13Z</time>
      </trkpt>
      <trkpt lat="45.97889" lon="6.70848">
        <ele>2374.59</ele>
        <time>2021-03-31T11:09:15Z</time>
      </trkpt>
      <trkpt lat="45.97906" lon="6.70856">
        <ele>2367.86</ele>
        <time>2021-03-31T11:09:20Z</time>
      </trkpt>
      <trkpt lat="45.97916" lon="6.70861">
        <ele>2364.5</ele>
        <time>2021-03-31T11:09:22Z</time>
      </trkpt>
      <trkpt lat="45.97935" lon="6.70854">
        <ele>2362.58</ele>
        <time>2021-03-31T11:09:26Z</time>
      </trkpt>
      <trkpt lat="45.97944" lon="6.70847">
        <ele>2362.1</ele>
        <time>2021-03-31T11:09:29Z</time>
      </trkpt>
      <trkpt lat="45.97953" lon="6.70857">
        <ele>2358.73</ele>
        <time>2021-03-31T11:09:32Z</time>
      </trkpt>
      <trkpt lat="45.97962" lon="6.70861">
        <ele>2354.41</ele>
        <time>2021-03-31T11:09:34Z</time>
      </trkpt>
      <trkpt lat="45.9797" lon="6.70855">
        <ele>2353.93</ele>
        <time>2021-03-31T11:09:36Z</time>
      </trkpt>
      <trkpt lat="45.97992" lon="6.70847">
        <ele>2350.56</ele>
        <time>2021-03-31T11:09:44Z</time>
      </trkpt>
      <trkpt lat="45.98005" lon="6.70849">
        <ele>2347.2</ele>
        <time>2021-03-31T11:09:48Z</time>
      </trkpt>
      <trkpt lat="45.98014" lon="6.70842">
        <ele>2343.83</ele>
        <time>2021-03-31T11:09:51Z</time>
      </trkpt>
      <trkpt lat="45.98017" lon="6.70843">
        <ele>2343.35</ele>
        <time>2021-03-31T11:09:52Z</time>
      </trkpt>
      <trkpt lat="45.98028" lon="6.70842">
        <ele>2340.47</ele>
        <time>2021-03-31T11:09:56Z</time>
      </trkpt>
      <trkpt lat="45.98042" lon="6.70837">
        <ele>2335.18</ele>
        <time>2021-03-31T11:10:00Z</time>
      </trkpt>
      <trkpt lat="45.98053" lon="6.70823">
        <ele>2330.85</ele>
        <time>2021-03-31T11:10:04Z</time>
      </trkpt>
      <trkpt lat="45.9806" lon="6.70828">
        <ele>2328.93</ele>
        <time>2021-03-31T11:10:06Z</time>
      </trkpt>
      <trkpt lat="45.98065" lon="6.70835">
        <ele>2328.45</ele>
        <time>2021-03-31T11:10:08Z</time>
      </trkpt>
      <trkpt lat="45.9808" lon="6.70824">
        <ele>2325.09</ele>
        <time>2021-03-31T11:10:12Z</time>
      </trkpt>
      <trkpt lat="45.98094" lon="6.70822">
        <ele>2321.24</ele>
        <time>2021-03-31T11:10:15Z</time>
      </trkpt>
      <trkpt lat="45.98106" lon="6.70813">
        <ele>2316.91</ele>
        <time>2021-03-31T11:10:18Z</time>
      </trkpt>
      <trkpt lat="45.98112" lon="6.70803">
        <ele>2313.55</ele>
        <time>2021-03-31T11:10:20Z</time>
      </trkpt>
      <trkpt lat="45.98126" lon="6.70793">
        <ele>2309.7</ele>
        <time>2021-03-31T11:10:24Z</time>
      </trkpt>
      <trkpt lat="45.98147" lon="6.708">
        <ele>2306.82</ele>
        <time>2021-03-31T11:10:28Z</time>
      </trkpt>
      <trkpt lat="45.98158" lon="6.7079">
        <ele>2303.46</ele>
        <time>2021-03-31T11:10:30Z</time>
      </trkpt>
      <trkpt lat="45.98168" lon="6.70791">
        <ele>2300.57</ele>
        <time>2021-03-31T11:10:32Z</time>
      </trkpt>
      <trkpt lat="45.98184" lon="6.70785">
        <ele>2295.28</ele>
        <time>2021-03-31T11:10:38Z</time>
      </trkpt>
      <trkpt lat="45.98185" lon="6.70786">
        <ele>2295.28</ele>
        <time>2021-03-31T11:10:39Z</time>
      </trkpt>
      <trkpt lat="45.98171" lon="6.70784">
        <ele>2295.28</ele>
        <time>2021-03-31T11:11:04Z</time>
      </trkpt>
      <trkpt lat="45.98171" lon="6.70783">
        <ele>2295.28</ele>
        <time>2021-03-31T11:11:21Z</time>
      </trkpt>
      <trkpt lat="45.9817" lon="6.70784">
        <ele>2295.28</ele>
        <time>2021-03-31T11:11:45Z</time>
      </trkpt>
      <trkpt lat="45.9817" lon="6.70785">
        <ele>2295.28</ele>
        <time>2021-03-31T11:12:08Z</time>
      </trkpt>
      <trkpt lat="45.9817" lon="6.70783">
        <ele>2295.28</ele>
        <time>2021-03-31T11:12:27Z</time>
      </trkpt>
      <trkpt lat="45.98185" lon="6.70782">
        <ele>2291.92</ele>
        <time>2021-03-31T11:12:32Z</time>
      </trkpt>
      <trkpt lat="45.982" lon="6.70779">
        <ele>2288.56</ele>
        <time>2021-03-31T11:12:35Z</time>
      </trkpt>
      <trkpt lat="45.98219" lon="6.70767">
        <ele>2285.67</ele>
        <time>2021-03-31T11:12:39Z</time>
      </trkpt>
      <trkpt lat="45.98232" lon="6.7077">
        <ele>2281.83</ele>
        <time>2021-03-31T11:12:42Z</time>
      </trkpt>
      <trkpt lat="45.98241" lon="6.70767">
        <ele>2279.42</ele>
        <time>2021-03-31T11:12:44Z</time>
      </trkpt>
      <trkpt lat="45.98262" lon="6.70769">
        <ele>2273.66</ele>
        <time>2021-03-31T11:12:49Z</time>
      </trkpt>
      <trkpt lat="45.98282" lon="6.70769">
        <ele>2266.93</ele>
        <time>2021-03-31T11:12:53Z</time>
      </trkpt>
      <trkpt lat="45.98299" lon="6.70771">
        <ele>2263.08</ele>
        <time>2021-03-31T11:12:57Z</time>
      </trkpt>
      <trkpt lat="45.98311" lon="6.70773">
        <ele>2262.12</ele>
        <time>2021-03-31T11:13:01Z</time>
      </trkpt>
      <trkpt lat="45.98326" lon="6.70773">
        <ele>2257.79</ele>
        <time>2021-03-31T11:13:05Z</time>
      </trkpt>
      <trkpt lat="45.98328" lon="6.70777">
        <ele>2257.79</ele>
        <time>2021-03-31T11:13:06Z</time>
      </trkpt>
      <trkpt lat="45.98343" lon="6.70772">
        <ele>2254.43</ele>
        <time>2021-03-31T11:13:10Z</time>
      </trkpt>
      <trkpt lat="45.98359" lon="6.70764">
        <ele>2249.14</ele>
        <time>2021-03-31T11:13:13Z</time>
      </trkpt>
      <trkpt lat="45.98376" lon="6.70763">
        <ele>2247.7</ele>
        <time>2021-03-31T11:13:20Z</time>
      </trkpt>
      <trkpt lat="45.98372" lon="6.70754">
        <ele>2247.7</ele>
        <time>2021-03-31T11:13:38Z</time>
      </trkpt>
      <trkpt lat="45.9837" lon="6.70749">
        <ele>2246.74</ele>
        <time>2021-03-31T11:13:39Z</time>
      </trkpt>
      <trkpt lat="45.98371" lon="6.70737">
        <ele>2245.78</ele>
        <time>2021-03-31T11:13:41Z</time>
      </trkpt>
      <trkpt lat="45.98377" lon="6.70726">
        <ele>2242.41</ele>
        <time>2021-03-31T11:13:44Z</time>
      </trkpt>
      <trkpt lat="45.98387" lon="6.70722">
        <ele>2239.05</ele>
        <time>2021-03-31T11:13:47Z</time>
      </trkpt>
      <trkpt lat="45.98402" lon="6.70725">
        <ele>2235.68</ele>
        <time>2021-03-31T11:13:50Z</time>
      </trkpt>
      <trkpt lat="45.98418" lon="6.70719">
        <ele>2233.28</ele>
        <time>2021-03-31T11:13:53Z</time>
      </trkpt>
      <trkpt lat="45.98437" lon="6.70698">
        <ele>2230.88</ele>
        <time>2021-03-31T11:13:59Z</time>
      </trkpt>
      <trkpt lat="45.98446" lon="6.70707">
        <ele>2228.95</ele>
        <time>2021-03-31T11:14:02Z</time>
      </trkpt>
      <trkpt lat="45.98456" lon="6.70709">
        <ele>2227.51</ele>
        <time>2021-03-31T11:14:05Z</time>
      </trkpt>
      <trkpt lat="45.9846" lon="6.70704">
        <ele>2226.55</ele>
        <time>2021-03-31T11:14:06Z</time>
      </trkpt>
      <trkpt lat="45.98471" lon="6.70679">
        <ele>2225.59</ele>
        <time>2021-03-31T11:14:12Z</time>
      </trkpt>
      <trkpt lat="45.98481" lon="6.70682">
        <ele>2221.74</ele>
        <time>2021-03-31T11:14:16Z</time>
      </trkpt>
      <trkpt lat="45.98497" lon="6.70677">
        <ele>2216.46</ele>
        <time>2021-03-31T11:14:21Z</time>
      </trkpt>
      <trkpt lat="45.98508" lon="6.7066">
        <ele>2211.65</ele>
        <time>2021-03-31T11:14:24Z</time>
      </trkpt>
      <trkpt lat="45.9851" lon="6.70654">
        <ele>2211.65</ele>
        <time>2021-03-31T11:14:25Z</time>
      </trkpt>
      <trkpt lat="45.98518" lon="6.70646">
        <ele>2208.29</ele>
        <time>2021-03-31T11:14:27Z</time>
      </trkpt>
      <trkpt lat="45.9853" lon="6.70629">
        <ele>2205.4</ele>
        <time>2021-03-31T11:14:30Z</time>
      </trkpt>
      <trkpt lat="45.98549" lon="6.7062">
        <ele>2203.48</ele>
        <time>2021-03-31T11:14:33Z</time>
      </trkpt>
      <trkpt lat="45.98574" lon="6.70608">
        <ele>2204.44</ele>
        <time>2021-03-31T11:14:42Z</time>
      </trkpt>
      <trkpt lat="45.98573" lon="6.70607">
        <ele>2204.44</ele>
        <time>2021-03-31T11:15:03Z</time>
      </trkpt>
      <trkpt lat="45.98574" lon="6.70607">
        <ele>2204.44</ele>
        <time>2021-03-31T11:15:12Z</time>
      </trkpt>
      <trkpt lat="45.98596" lon="6.70586">
        <ele>2202.04</ele>
        <time>2021-03-31T11:15:23Z</time>
      </trkpt>
      <trkpt lat="45.98611" lon="6.70561">
        <ele>2200.11</ele>
        <time>2021-03-31T11:15:29Z</time>
      </trkpt>
      <trkpt lat="45.98628" lon="6.70556">
        <ele>2196.75</ele>
        <time>2021-03-31T11:15:33Z</time>
      </trkpt>
      <trkpt lat="45.98641" lon="6.70549">
        <ele>2193.87</ele>
        <time>2021-03-31T11:15:36Z</time>
      </trkpt>
      <trkpt lat="45.98668" lon="6.70537">
        <ele>2189.06</ele>
        <time>2021-03-31T11:15:43Z</time>
      </trkpt>
      <trkpt lat="45.98684" lon="6.70529">
        <ele>2186.18</ele>
        <time>2021-03-31T11:15:47Z</time>
      </trkpt>
      <trkpt lat="45.98698" lon="6.70524">
        <ele>2182.33</ele>
        <time>2021-03-31T11:15:50Z</time>
      </trkpt>
      <trkpt lat="45.98712" lon="6.70518">
        <ele>2179.45</ele>
        <time>2021-03-31T11:15:53Z</time>
      </trkpt>
      <trkpt lat="45.98725" lon="6.70512">
        <ele>2176.56</ele>
        <time>2021-03-31T11:15:56Z</time>
      </trkpt>
      <trkpt lat="45.98736" lon="6.70507">
        <ele>2173.2</ele>
        <time>2021-03-31T11:15:59Z</time>
      </trkpt>
      <trkpt lat="45.98748" lon="6.70509">
        <ele>2169.83</ele>
        <time>2021-03-31T11:16:03Z</time>
      </trkpt>
      <trkpt lat="45.98756" lon="6.70507">
        <ele>2166.95</ele>
        <time>2021-03-31T11:16:06Z</time>
      </trkpt>
      <trkpt lat="45.98765" lon="6.70495">
        <ele>2163.58</ele>
        <time>2021-03-31T11:16:10Z</time>
      </trkpt>
      <trkpt lat="45.98768" lon="6.70492">
        <ele>2163.58</ele>
        <time>2021-03-31T11:16:11Z</time>
      </trkpt>
      <trkpt lat="45.98777" lon="6.70495">
        <ele>2159.74</ele>
        <time>2021-03-31T11:16:14Z</time>
      </trkpt>
      <trkpt lat="45.98786" lon="6.70469">
        <ele>2155.89</ele>
        <time>2021-03-31T11:16:21Z</time>
      </trkpt>
      <trkpt lat="45.98798" lon="6.70458">
        <ele>2151.57</ele>
        <time>2021-03-31T11:16:24Z</time>
      </trkpt>
      <trkpt lat="45.98808" lon="6.70451">
        <ele>2148.68</ele>
        <time>2021-03-31T11:16:27Z</time>
      </trkpt>
      <trkpt lat="45.98821" lon="6.70448">
        <ele>2144.36</ele>
        <time>2021-03-31T11:16:30Z</time>
      </trkpt>
      <trkpt lat="45.98833" lon="6.70435">
        <ele>2140.99</ele>
        <time>2021-03-31T11:16:34Z</time>
      </trkpt>
      <trkpt lat="45.98842" lon="6.70426">
        <ele>2138.11</ele>
        <time>2021-03-31T11:16:37Z</time>
      </trkpt>
      <trkpt lat="45.98847" lon="6.70433">
        <ele>2135.71</ele>
        <time>2021-03-31T11:16:40Z</time>
      </trkpt>
      <trkpt lat="45.98852" lon="6.70428">
        <ele>2133.78</ele>
        <time>2021-03-31T11:16:43Z</time>
      </trkpt>
      <trkpt lat="45.98852" lon="6.70428">
        <ele>2133.3</ele>
        <time>2021-03-31T11:17:01Z</time>
      </trkpt>
      <trkpt lat="45.98851" lon="6.70427">
        <ele>2133.3</ele>
        <time>2021-03-31T11:17:22Z</time>
      </trkpt>
      <trkpt lat="45.98852" lon="6.70428">
        <ele>2133.3</ele>
        <time>2021-03-31T11:17:41Z</time>
      </trkpt>
      <trkpt lat="45.98851" lon="6.70428">
        <ele>2133.3</ele>
        <time>2021-03-31T11:18:13Z</time>
      </trkpt>
      <trkpt lat="45.9885" lon="6.70428">
        <ele>2132.82</ele>
        <time>2021-03-31T11:18:36Z</time>
      </trkpt>
      <trkpt lat="45.98849" lon="6.70427">
        <ele>2132.82</ele>
        <time>2021-03-31T11:18:58Z</time>
      </trkpt>
      <trkpt lat="45.98848" lon="6.7043">
        <ele>2132.82</ele>
        <time>2021-03-31T11:19:23Z</time>
      </trkpt>
      <trkpt lat="45.98848" lon="6.7043">
        <ele>2132.34</ele>
        <time>2021-03-31T11:19:45Z</time>
      </trkpt>
      <trkpt lat="45.98852" lon="6.70419">
        <ele>2131.86</ele>
        <time>2021-03-31T11:19:56Z</time>
      </trkpt>
      <trkpt lat="45.98853" lon="6.70419">
        <ele>2131.86</ele>
        <time>2021-03-31T11:19:59Z</time>
      </trkpt>
      <trkpt lat="45.98859" lon="6.70395">
        <ele>2130.42</ele>
        <time>2021-03-31T11:20:07Z</time>
      </trkpt>
      <trkpt lat="45.98875" lon="6.70388">
        <ele>2125.61</ele>
        <time>2021-03-31T11:20:11Z</time>
      </trkpt>
      <trkpt lat="45.98886" lon="6.7039">
        <ele>2122.25</ele>
        <time>2021-03-31T11:20:14Z</time>
      </trkpt>
      <trkpt lat="45.98899" lon="6.70385">
        <ele>2118.4</ele>
        <time>2021-03-31T11:20:17Z</time>
      </trkpt>
      <trkpt lat="45.98912" lon="6.70374">
        <ele>2115.04</ele>
        <time>2021-03-31T11:20:20Z</time>
      </trkpt>
      <trkpt lat="45.98925" lon="6.70363">
        <ele>2110.71</ele>
        <time>2021-03-31T11:20:23Z</time>
      </trkpt>
      <trkpt lat="45.98934" lon="6.70347">
        <ele>2105.91</ele>
        <time>2021-03-31T11:20:26Z</time>
      </trkpt>
      <trkpt lat="45.98948" lon="6.70321">
        <ele>2101.1</ele>
        <time>2021-03-31T11:20:31Z</time>
      </trkpt>
      <trkpt lat="45.98951" lon="6.70316">
        <ele>2100.62</ele>
        <time>2021-03-31T11:20:32Z</time>
      </trkpt>
      <trkpt lat="45.98953" lon="6.70291">
        <ele>2099.66</ele>
        <time>2021-03-31T11:20:37Z</time>
      </trkpt>
      <trkpt lat="45.98964" lon="6.70279">
        <ele>2095.33</ele>
        <time>2021-03-31T11:20:41Z</time>
      </trkpt>
      <trkpt lat="45.98966" lon="6.70273">
        <ele>2093.89</ele>
        <time>2021-03-31T11:20:42Z</time>
      </trkpt>
      <trkpt lat="45.98971" lon="6.70256">
        <ele>2091.49</ele>
        <time>2021-03-31T11:20:45Z</time>
      </trkpt>
      <trkpt lat="45.98976" lon="6.70242">
        <ele>2089.08</ele>
        <time>2021-03-31T11:20:47Z</time>
      </trkpt>
      <trkpt lat="45.98989" lon="6.70233">
        <ele>2084.28</ele>
        <time>2021-03-31T11:20:50Z</time>
      </trkpt>
      <trkpt lat="45.98991" lon="6.70216">
        <ele>2081.39</ele>
        <time>2021-03-31T11:20:52Z</time>
      </trkpt>
      <trkpt lat="45.98987" lon="6.70158">
        <ele>2078.99</ele>
        <time>2021-03-31T11:21:01Z</time>
      </trkpt>
      <trkpt lat="45.98987" lon="6.70153">
        <ele>2078.99</ele>
        <time>2021-03-31T11:21:02Z</time>
      </trkpt>
      <trkpt lat="45.98995" lon="6.70138">
        <ele>2074.66</ele>
        <time>2021-03-31T11:21:07Z</time>
      </trkpt>
      <trkpt lat="45.98996" lon="6.70137">
        <ele>2074.66</ele>
        <time>2021-03-31T11:21:20Z</time>
      </trkpt>
      <trkpt lat="45.99001" lon="6.70127">
        <ele>2072.26</ele>
        <time>2021-03-31T11:21:24Z</time>
      </trkpt>
      <trkpt lat="45.99003" lon="6.70105">
        <ele>2070.34</ele>
        <time>2021-03-31T11:21:27Z</time>
      </trkpt>
      <trkpt lat="45.99007" lon="6.701">
        <ele>2068.41</ele>
        <time>2021-03-31T11:21:28Z</time>
      </trkpt>
      <trkpt lat="45.99013" lon="6.70086">
        <ele>2066.49</ele>
        <time>2021-03-31T11:21:30Z</time>
      </trkpt>
      <trkpt lat="45.99021" lon="6.70079">
        <ele>2063.13</ele>
        <time>2021-03-31T11:21:32Z</time>
      </trkpt>
      <trkpt lat="45.99031" lon="6.70061">
        <ele>2058.32</ele>
        <time>2021-03-31T11:21:35Z</time>
      </trkpt>
      <trkpt lat="45.9904" lon="6.70039">
        <ele>2053.51</ele>
        <time>2021-03-31T11:21:38Z</time>
      </trkpt>
      <trkpt lat="45.99045" lon="6.70018">
        <ele>2050.63</ele>
        <time>2021-03-31T11:21:41Z</time>
      </trkpt>
      <trkpt lat="45.99053" lon="6.70004">
        <ele>2047.26</ele>
        <time>2021-03-31T11:21:44Z</time>
      </trkpt>
      <trkpt lat="45.99053" lon="6.69994">
        <ele>2046.3</ele>
        <time>2021-03-31T11:21:46Z</time>
      </trkpt>
      <trkpt lat="45.99057" lon="6.6999">
        <ele>2044.38</ele>
        <time>2021-03-31T11:21:48Z</time>
      </trkpt>
      <trkpt lat="45.9906" lon="6.69972">
        <ele>2040.54</ele>
        <time>2021-03-31T11:21:54Z</time>
      </trkpt>
      <trkpt lat="45.99065" lon="6.69961">
        <ele>2036.69</ele>
        <time>2021-03-31T11:21:56Z</time>
      </trkpt>
      <trkpt lat="45.99073" lon="6.69949">
        <ele>2033.81</ele>
        <time>2021-03-31T11:21:58Z</time>
      </trkpt>
      <trkpt lat="45.99076" lon="6.69936">
        <ele>2030.44</ele>
        <time>2021-03-31T11:22:00Z</time>
      </trkpt>
      <trkpt lat="45.99082" lon="6.69923">
        <ele>2027.08</ele>
        <time>2021-03-31T11:22:02Z</time>
      </trkpt>
      <trkpt lat="45.99091" lon="6.69918">
        <ele>2023.71</ele>
        <time>2021-03-31T11:22:04Z</time>
      </trkpt>
      <trkpt lat="45.99099" lon="6.69909">
        <ele>2020.83</ele>
        <time>2021-03-31T11:22:06Z</time>
      </trkpt>
      <trkpt lat="45.99108" lon="6.69902">
        <ele>2017.46</ele>
        <time>2021-03-31T11:22:08Z</time>
      </trkpt>
      <trkpt lat="45.99121" lon="6.69906">
        <ele>2014.1</ele>
        <time>2021-03-31T11:22:11Z</time>
      </trkpt>
      <trkpt lat="45.99134" lon="6.69899">
        <ele>2010.73</ele>
        <time>2021-03-31T11:22:14Z</time>
      </trkpt>
      <trkpt lat="45.99144" lon="6.69889">
        <ele>2007.37</ele>
        <time>2021-03-31T11:22:17Z</time>
      </trkpt>
      <trkpt lat="45.99152" lon="6.69879">
        <ele>2003.52</ele>
        <time>2021-03-31T11:22:20Z</time>
      </trkpt>
      <trkpt lat="45.99161" lon="6.69874">
        <ele>2000.64</ele>
        <time>2021-03-31T11:22:24Z</time>
      </trkpt>
      <trkpt lat="45.99171" lon="6.69879">
        <ele>1999.68</ele>
        <time>2021-03-31T11:22:27Z</time>
      </trkpt>
      <trkpt lat="45.99181" lon="6.69868">
        <ele>1995.35</ele>
        <time>2021-03-31T11:22:31Z</time>
      </trkpt>
      <trkpt lat="45.99189" lon="6.69859">
        <ele>1991.99</ele>
        <time>2021-03-31T11:22:34Z</time>
      </trkpt>
      <trkpt lat="45.992" lon="6.69854">
        <ele>1988.14</ele>
        <time>2021-03-31T11:22:37Z</time>
      </trkpt>
      <trkpt lat="45.99211" lon="6.69843">
        <ele>1983.34</ele>
        <time>2021-03-31T11:22:40Z</time>
      </trkpt>
      <trkpt lat="45.99218" lon="6.6983">
        <ele>1979.01</ele>
        <time>2021-03-31T11:22:43Z</time>
      </trkpt>
      <trkpt lat="45.99227" lon="6.6982">
        <ele>1975.65</ele>
        <time>2021-03-31T11:22:46Z</time>
      </trkpt>
      <trkpt lat="45.99239" lon="6.69806">
        <ele>1971.32</ele>
        <time>2021-03-31T11:22:49Z</time>
      </trkpt>
      <trkpt lat="45.99249" lon="6.69796">
        <ele>1966.99</ele>
        <time>2021-03-31T11:22:52Z</time>
      </trkpt>
      <trkpt lat="45.99259" lon="6.69784">
        <ele>1962.19</ele>
        <time>2021-03-31T11:22:55Z</time>
      </trkpt>
      <trkpt lat="45.99268" lon="6.69778">
        <ele>1958.82</ele>
        <time>2021-03-31T11:22:57Z</time>
      </trkpt>
      <trkpt lat="45.99278" lon="6.69763">
        <ele>1954.5</ele>
        <time>2021-03-31T11:23:00Z</time>
      </trkpt>
      <trkpt lat="45.99276" lon="6.6975">
        <ele>1951.13</ele>
        <time>2021-03-31T11:23:02Z</time>
      </trkpt>
      <trkpt lat="45.99282" lon="6.69733">
        <ele>1947.29</ele>
        <time>2021-03-31T11:23:05Z</time>
      </trkpt>
      <trkpt lat="45.99288" lon="6.69723">
        <ele>1944.4</ele>
        <time>2021-03-31T11:23:07Z</time>
      </trkpt>
      <trkpt lat="45.99297" lon="6.69716">
        <ele>1941.04</ele>
        <time>2021-03-31T11:23:09Z</time>
      </trkpt>
      <trkpt lat="45.99303" lon="6.69704">
        <ele>1938.64</ele>
        <time>2021-03-31T11:23:11Z</time>
      </trkpt>
      <trkpt lat="45.9932" lon="6.69687">
        <ele>1931.91</ele>
        <time>2021-03-31T11:23:15Z</time>
      </trkpt>
      <trkpt lat="45.99332" lon="6.69677">
        <ele>1928.54</ele>
        <time>2021-03-31T11:23:18Z</time>
      </trkpt>
      <trkpt lat="45.99339" lon="6.69672">
        <ele>1926.62</ele>
        <time>2021-03-31T11:23:20Z</time>
      </trkpt>
      <trkpt lat="45.99349" lon="6.69655">
        <ele>1921.81</ele>
        <time>2021-03-31T11:23:26Z</time>
      </trkpt>
      <trkpt lat="45.99358" lon="6.69636">
        <ele>1918.45</ele>
        <time>2021-03-31T11:23:30Z</time>
      </trkpt>
      <trkpt lat="45.9937" lon="6.69638">
        <ele>1915.08</ele>
        <time>2021-03-31T11:23:32Z</time>
      </trkpt>
      <trkpt lat="45.99373" lon="6.69642">
        <ele>1915.08</ele>
        <time>2021-03-31T11:23:33Z</time>
      </trkpt>
      <trkpt lat="45.99388" lon="6.69636">
        <ele>1912.2</ele>
        <time>2021-03-31T11:23:39Z</time>
      </trkpt>
      <trkpt lat="45.99399" lon="6.69624">
        <ele>1908.35</ele>
        <time>2021-03-31T11:23:42Z</time>
      </trkpt>
      <trkpt lat="45.99409" lon="6.69618">
        <ele>1905.47</ele>
        <time>2021-03-31T11:23:44Z</time>
      </trkpt>
      <trkpt lat="45.99426" lon="6.69623">
        <ele>1900.18</ele>
        <time>2021-03-31T11:23:49Z</time>
      </trkpt>
      <trkpt lat="45.99426" lon="6.6962">
        <ele>1900.18</ele>
        <time>2021-03-31T11:23:50Z</time>
      </trkpt>
      <trkpt lat="45.99425" lon="6.69618">
        <ele>1899.7</ele>
        <time>2021-03-31T11:24:03Z</time>
      </trkpt>
      <trkpt lat="45.99424" lon="6.69619">
        <ele>1899.7</ele>
        <time>2021-03-31T11:24:24Z</time>
      </trkpt>
      <trkpt lat="45.99424" lon="6.69618">
        <ele>1899.22</ele>
        <time>2021-03-31T11:24:53Z</time>
      </trkpt>
      <trkpt lat="45.99424" lon="6.69619">
        <ele>1899.22</ele>
        <time>2021-03-31T11:25:19Z</time>
      </trkpt>
      <trkpt lat="45.99424" lon="6.6962">
        <ele>1898.74</ele>
        <time>2021-03-31T11:25:43Z</time>
      </trkpt>
      <trkpt lat="45.99423" lon="6.6962">
        <ele>1898.74</ele>
        <time>2021-03-31T11:26:03Z</time>
      </trkpt>
      <trkpt lat="45.99424" lon="6.6962">
        <ele>1898.74</ele>
        <time>2021-03-31T11:26:20Z</time>
      </trkpt>
      <trkpt lat="45.99438" lon="6.69605">
        <ele>1894.42</ele>
        <time>2021-03-31T11:26:25Z</time>
      </trkpt>
      <trkpt lat="45.99449" lon="6.69596">
        <ele>1890.57</ele>
        <time>2021-03-31T11:26:27Z</time>
      </trkpt>
      <trkpt lat="45.99458" lon="6.69584">
        <ele>1887.69</ele>
        <time>2021-03-31T11:26:29Z</time>
      </trkpt>
      <trkpt lat="45.99481" lon="6.69562">
        <ele>1879.51</ele>
        <time>2021-03-31T11:26:33Z</time>
      </trkpt>
      <trkpt lat="45.99491" lon="6.6955">
        <ele>1875.19</ele>
        <time>2021-03-31T11:26:35Z</time>
      </trkpt>
      <trkpt lat="45.99501" lon="6.6954">
        <ele>1871.82</ele>
        <time>2021-03-31T11:26:37Z</time>
      </trkpt>
      <trkpt lat="45.99517" lon="6.69512">
        <ele>1864.13</ele>
        <time>2021-03-31T11:26:40Z</time>
      </trkpt>
      <trkpt lat="45.9952" lon="6.69499">
        <ele>1864.13</ele>
        <time>2021-03-31T11:26:41Z</time>
      </trkpt>
      <trkpt lat="45.99532" lon="6.69481">
        <ele>1858.85</ele>
        <time>2021-03-31T11:26:43Z</time>
      </trkpt>
      <trkpt lat="45.99544" lon="6.69452">
        <ele>1856.44</ele>
        <time>2021-03-31T11:26:46Z</time>
      </trkpt>
      <trkpt lat="45.99548" lon="6.69443">
        <ele>1855.48</ele>
        <time>2021-03-31T11:26:47Z</time>
      </trkpt>
      <trkpt lat="45.99565" lon="6.69402">
        <ele>1851.64</ele>
        <time>2021-03-31T11:26:52Z</time>
      </trkpt>
      <trkpt lat="45.99579" lon="6.69385">
        <ele>1848.27</ele>
        <time>2021-03-31T11:26:56Z</time>
      </trkpt>
      <trkpt lat="45.99595" lon="6.69392">
        <ele>1844.43</ele>
        <time>2021-03-31T11:27:01Z</time>
      </trkpt>
      <trkpt lat="45.99608" lon="6.69384">
        <ele>1840.1</ele>
        <time>2021-03-31T11:27:04Z</time>
      </trkpt>
      <trkpt lat="45.99627" lon="6.69368">
        <ele>1832.89</ele>
        <time>2021-03-31T11:27:08Z</time>
      </trkpt>
      <trkpt lat="45.99645" lon="6.6937">
        <ele>1829.05</ele>
        <time>2021-03-31T11:27:11Z</time>
      </trkpt>
      <trkpt lat="45.99657" lon="6.69385">
        <ele>1827.6</ele>
        <time>2021-03-31T11:27:14Z</time>
      </trkpt>
      <trkpt lat="45.99675" lon="6.69395">
        <ele>1824.72</ele>
        <time>2021-03-31T11:27:18Z</time>
      </trkpt>
      <trkpt lat="45.997" lon="6.69407">
        <ele>1819.91</ele>
        <time>2021-03-31T11:27:23Z</time>
      </trkpt>
      <trkpt lat="45.99709" lon="6.69417">
        <ele>1816.55</ele>
        <time>2021-03-31T11:27:25Z</time>
      </trkpt>
      <trkpt lat="45.99722" lon="6.69428">
        <ele>1813.18</ele>
        <time>2021-03-31T11:27:28Z</time>
      </trkpt>
      <trkpt lat="45.9973" lon="6.69437">
        <ele>1810.3</ele>
        <time>2021-03-31T11:27:32Z</time>
      </trkpt>
      <trkpt lat="45.99725" lon="6.69438">
        <ele>1810.3</ele>
        <time>2021-03-31T11:27:49Z</time>
      </trkpt>
      <trkpt lat="45.99724" lon="6.69442">
        <ele>1810.3</ele>
        <time>2021-03-31T11:27:56Z</time>
      </trkpt>
      <trkpt lat="45.99731" lon="6.69462">
        <ele>1805.97</ele>
        <time>2021-03-31T11:28:03Z</time>
      </trkpt>
      <trkpt lat="45.99741" lon="6.69474">
        <ele>1802.13</ele>
        <time>2021-03-31T11:28:06Z</time>
      </trkpt>
      <trkpt lat="45.99748" lon="6.69488">
        <ele>1798.76</ele>
        <time>2021-03-31T11:28:09Z</time>
      </trkpt>
      <trkpt lat="45.99755" lon="6.69498">
        <ele>1795.4</ele>
        <time>2021-03-31T11:28:12Z</time>
      </trkpt>
      <trkpt lat="45.99757" lon="6.69502">
        <ele>1794.44</ele>
        <time>2021-03-31T11:28:13Z</time>
      </trkpt>
      <trkpt lat="45.9976" lon="6.69511">
        <ele>1793.48</ele>
        <time>2021-03-31T11:28:15Z</time>
      </trkpt>
      <trkpt lat="45.99769" lon="6.6952">
        <ele>1792.03</ele>
        <time>2021-03-31T11:28:18Z</time>
      </trkpt>
      <trkpt lat="45.99779" lon="6.69512">
        <ele>1788.19</ele>
        <time>2021-03-31T11:28:26Z</time>
      </trkpt>
      <trkpt lat="45.99781" lon="6.69517">
        <ele>1788.19</ele>
        <time>2021-03-31T11:28:27Z</time>
      </trkpt>
      <trkpt lat="45.99782" lon="6.69521">
        <ele>1787.23</ele>
        <time>2021-03-31T11:28:28Z</time>
      </trkpt>
      <trkpt lat="45.99793" lon="6.6956">
        <ele>1784.82</ele>
        <time>2021-03-31T11:28:41Z</time>
      </trkpt>
      <trkpt lat="45.99794" lon="6.69575">
        <ele>1782.9</ele>
        <time>2021-03-31T11:28:46Z</time>
      </trkpt>
      <trkpt lat="45.99802" lon="6.69598">
        <ele>1778.58</ele>
        <time>2021-03-31T11:28:50Z</time>
      </trkpt>
      <trkpt lat="45.99807" lon="6.69622">
        <ele>1774.73</ele>
        <time>2021-03-31T11:28:54Z</time>
      </trkpt>
      <trkpt lat="45.99807" lon="6.69628">
        <ele>1773.77</ele>
        <time>2021-03-31T11:28:55Z</time>
      </trkpt>
      <trkpt lat="45.99809" lon="6.69652">
        <ele>1768.48</ele>
        <time>2021-03-31T11:28:59Z</time>
      </trkpt>
      <trkpt lat="45.99813" lon="6.69671">
        <ele>1764.16</ele>
        <time>2021-03-31T11:29:02Z</time>
      </trkpt>
      <trkpt lat="45.99818" lon="6.69687">
        <ele>1759.83</ele>
        <time>2021-03-31T11:29:05Z</time>
      </trkpt>
      <trkpt lat="45.99826" lon="6.69701">
        <ele>1755.5</ele>
        <time>2021-03-31T11:29:08Z</time>
      </trkpt>
      <trkpt lat="45.9983" lon="6.69717">
        <ele>1752.14</ele>
        <time>2021-03-31T11:29:11Z</time>
      </trkpt>
      <trkpt lat="45.99839" lon="6.69729">
        <ele>1747.81</ele>
        <time>2021-03-31T11:29:14Z</time>
      </trkpt>
      <trkpt lat="45.99846" lon="6.69742">
        <ele>1743.97</ele>
        <time>2021-03-31T11:29:17Z</time>
      </trkpt>
      <trkpt lat="45.99849" lon="6.69761">
        <ele>1740.12</ele>
        <time>2021-03-31T11:29:20Z</time>
      </trkpt>
      <trkpt lat="45.99856" lon="6.69779">
        <ele>1735.8</ele>
        <time>2021-03-31T11:29:23Z</time>
      </trkpt>
      <trkpt lat="45.99861" lon="6.69789">
        <ele>1734.36</ele>
        <time>2021-03-31T11:29:25Z</time>
      </trkpt>
      <trkpt lat="45.99866" lon="6.698">
        <ele>1730.99</ele>
        <time>2021-03-31T11:29:27Z</time>
      </trkpt>
      <trkpt lat="45.99872" lon="6.69814">
        <ele>1727.15</ele>
        <time>2021-03-31T11:29:30Z</time>
      </trkpt>
      <trkpt lat="45.99872" lon="6.69827">
        <ele>1723.78</ele>
        <time>2021-03-31T11:29:32Z</time>
      </trkpt>
      <trkpt lat="45.99884" lon="6.69855">
        <ele>1717.53</ele>
        <time>2021-03-31T11:29:37Z</time>
      </trkpt>
      <trkpt lat="45.99889" lon="6.69866">
        <ele>1714.17</ele>
        <time>2021-03-31T11:29:39Z</time>
      </trkpt>
      <trkpt lat="45.99895" lon="6.69879">
        <ele>1710.32</ele>
        <time>2021-03-31T11:29:41Z</time>
      </trkpt>
      <trkpt lat="45.99914" lon="6.6991">
        <ele>1704.07</ele>
        <time>2021-03-31T11:29:46Z</time>
      </trkpt>
      <trkpt lat="45.99918" lon="6.69935">
        <ele>1702.15</ele>
        <time>2021-03-31T11:29:50Z</time>
      </trkpt>
      <trkpt lat="45.99935" lon="6.69952">
        <ele>1697.83</ele>
        <time>2021-03-31T11:29:55Z</time>
      </trkpt>
      <trkpt lat="45.99944" lon="6.69954">
        <ele>1694.46</ele>
        <time>2021-03-31T11:29:57Z</time>
      </trkpt>
      <trkpt lat="45.99956" lon="6.69956">
        <ele>1691.1</ele>
        <time>2021-03-31T11:29:59Z</time>
      </trkpt>
      <trkpt lat="45.99971" lon="6.69947">
        <ele>1687.73</ele>
        <time>2021-03-31T11:30:02Z</time>
      </trkpt>
      <trkpt lat="45.99994" lon="6.69927">
        <ele>1681.96</ele>
        <time>2021-03-31T11:30:07Z</time>
      </trkpt>
      <trkpt lat="46.00019" lon="6.69917">
        <ele>1677.16</ele>
        <time>2021-03-31T11:30:12Z</time>
      </trkpt>
      <trkpt lat="46.00024" lon="6.69914">
        <ele>1677.16</ele>
        <time>2021-03-31T11:30:13Z</time>
      </trkpt>
      <trkpt lat="46.00046" lon="6.69901">
        <ele>1675.23</ele>
        <time>2021-03-31T11:30:18Z</time>
      </trkpt>
      <trkpt lat="46.0006" lon="6.69888">
        <ele>1673.79</ele>
        <time>2021-03-31T11:30:22Z</time>
      </trkpt>
      <trkpt lat="46.0007" lon="6.69876">
        <ele>1672.35</ele>
        <time>2021-03-31T11:30:25Z</time>
      </trkpt>
      <trkpt lat="46.00083" lon="6.69872">
        <ele>1671.39</ele>
        <time>2021-03-31T11:30:28Z</time>
      </trkpt>
      <trkpt lat="46.00087" lon="6.69863">
        <ele>1669.47</ele>
        <time>2021-03-31T11:30:30Z</time>
      </trkpt>
      <trkpt lat="46.0009" lon="6.69851">
        <ele>1668.02</ele>
        <time>2021-03-31T11:30:32Z</time>
      </trkpt>
      <trkpt lat="46.00109" lon="6.69829">
        <ele>1663.7</ele>
        <time>2021-03-31T11:30:38Z</time>
      </trkpt>
      <trkpt lat="46.0012" lon="6.69815">
        <ele>1660.33</ele>
        <time>2021-03-31T11:30:41Z</time>
      </trkpt>
      <trkpt lat="46.00126" lon="6.69804">
        <ele>1658.41</ele>
        <time>2021-03-31T11:30:43Z</time>
      </trkpt>
      <trkpt lat="46.00146" lon="6.69774">
        <ele>1653.12</ele>
        <time>2021-03-31T11:30:49Z</time>
      </trkpt>
      <trkpt lat="46.00163" lon="6.69766">
        <ele>1650.24</ele>
        <time>2021-03-31T11:30:53Z</time>
      </trkpt>
      <trkpt lat="46.00171" lon="6.69755">
        <ele>1647.84</ele>
        <time>2021-03-31T11:30:55Z</time>
      </trkpt>
      <trkpt lat="46.00186" lon="6.69749">
        <ele>1643.51</ele>
        <time>2021-03-31T11:30:58Z</time>
      </trkpt>
      <trkpt lat="46.0019" lon="6.69745">
        <ele>1642.07</ele>
        <time>2021-03-31T11:30:59Z</time>
      </trkpt>
      <trkpt lat="46.00212" lon="6.69726">
        <ele>1636.3</ele>
        <time>2021-03-31T11:31:04Z</time>
      </trkpt>
      <trkpt lat="46.00224" lon="6.69723">
        <ele>1632.46</ele>
        <time>2021-03-31T11:31:06Z</time>
      </trkpt>
      <trkpt lat="46.00239" lon="6.69709">
        <ele>1630.05</ele>
        <time>2021-03-31T11:31:09Z</time>
      </trkpt>
      <trkpt lat="46.00274" lon="6.69685">
        <ele>1625.73</ele>
        <time>2021-03-31T11:31:18Z</time>
      </trkpt>
      <trkpt lat="46.00271" lon="6.69681">
        <ele>1625.73</ele>
        <time>2021-03-31T11:31:34Z</time>
      </trkpt>
      <trkpt lat="46.0027" lon="6.6968">
        <ele>1625.25</ele>
        <time>2021-03-31T11:31:40Z</time>
      </trkpt>
      <trkpt lat="46.00272" lon="6.69675">
        <ele>1624.77</ele>
        <time>2021-03-31T11:31:53Z</time>
      </trkpt>
      <trkpt lat="46.00271" lon="6.69676">
        <ele>1624.77</ele>
        <time>2021-03-31T11:32:15Z</time>
      </trkpt>
      <trkpt lat="46.0027" lon="6.69677">
        <ele>1624.28</ele>
        <time>2021-03-31T11:32:37Z</time>
      </trkpt>
      <trkpt lat="46.00271" lon="6.69676">
        <ele>1624.28</ele>
        <time>2021-03-31T11:32:40Z</time>
      </trkpt>
      <trkpt lat="46.00277" lon="6.69666">
        <ele>1622.36</ele>
        <time>2021-03-31T11:32:53Z</time>
      </trkpt>
      <trkpt lat="46.00279" lon="6.69663">
        <ele>1622.36</ele>
        <time>2021-03-31T11:32:54Z</time>
      </trkpt>
      <trkpt lat="46.00282" lon="6.69641">
        <ele>1619</ele>
        <time>2021-03-31T11:32:58Z</time>
      </trkpt>
      <trkpt lat="46.00285" lon="6.6959">
        <ele>1613.71</ele>
        <time>2021-03-31T11:33:06Z</time>
      </trkpt>
      <trkpt lat="46.00286" lon="6.69575">
        <ele>1611.31</ele>
        <time>2021-03-31T11:33:08Z</time>
      </trkpt>
      <trkpt lat="46.00285" lon="6.6955">
        <ele>1608.9</ele>
        <time>2021-03-31T11:33:11Z</time>
      </trkpt>
      <trkpt lat="46.00285" lon="6.69468">
        <ele>1606.02</ele>
        <time>2021-03-31T11:33:23Z</time>
      </trkpt>
      <trkpt lat="46.00285" lon="6.69419">
        <ele>1605.06</ele>
        <time>2021-03-31T11:33:36Z</time>
      </trkpt>
      <trkpt lat="46.00288" lon="6.69367">
        <ele>1602.66</ele>
        <time>2021-03-31T11:33:50Z</time>
      </trkpt>
      <trkpt lat="46.00292" lon="6.69327">
        <ele>1600.73</ele>
        <time>2021-03-31T11:33:57Z</time>
      </trkpt>
      <trkpt lat="46.00309" lon="6.69286">
        <ele>1599.29</ele>
        <time>2021-03-31T11:34:09Z</time>
      </trkpt>
      <trkpt lat="46.00325" lon="6.69257">
        <ele>1598.33</ele>
        <time>2021-03-31T11:34:22Z</time>
      </trkpt>
      <trkpt lat="46.00342" lon="6.69233">
        <ele>1597.85</ele>
        <time>2021-03-31T11:34:35Z</time>
      </trkpt>
      <trkpt lat="46.00361" lon="6.69211">
        <ele>1596.89</ele>
        <time>2021-03-31T11:34:47Z</time>
      </trkpt>
      <trkpt lat="46.00382" lon="6.69188">
        <ele>1595.93</ele>
        <time>2021-03-31T11:34:58Z</time>
      </trkpt>
      <trkpt lat="46.00389" lon="6.69179">
        <ele>1595.93</ele>
        <time>2021-03-31T11:35:09Z</time>
      </trkpt>
      <trkpt lat="46.00398" lon="6.69163">
        <ele>1594.96</ele>
        <time>2021-03-31T11:35:21Z</time>
      </trkpt>
      <trkpt lat="46.00405" lon="6.6916">
        <ele>1594.48</ele>
        <time>2021-03-31T11:35:30Z</time>
      </trkpt>
      <trkpt lat="46.00405" lon="6.69164">
        <ele>1594</ele>
        <time>2021-03-31T11:35:50Z</time>
      </trkpt>
      <trkpt lat="46.00408" lon="6.69163">
        <ele>1593.52</ele>
        <time>2021-03-31T11:36:14Z</time>
      </trkpt>
      <trkpt lat="46.00409" lon="6.6916">
        <ele>1593.52</ele>
        <time>2021-03-31T11:36:32Z</time>
      </trkpt>
      <trkpt lat="46.00409" lon="6.69163">
        <ele>1593.04</ele>
        <time>2021-03-31T11:36:45Z</time>
      </trkpt>
      <trkpt lat="46.00413" lon="6.69158">
        <ele>1592.56</ele>
        <time>2021-03-31T11:36:53Z</time>
      </trkpt>
      <trkpt lat="46.00412" lon="6.69137">
        <ele>1590.64</ele>
        <time>2021-03-31T11:37:07Z</time>
      </trkpt>
      <trkpt lat="46.00413" lon="6.6913">
        <ele>1590.16</ele>
        <time>2021-03-31T11:37:12Z</time>
      </trkpt>
      <trkpt lat="46.00416" lon="6.69111">
        <ele>1589.2</ele>
        <time>2021-03-31T11:37:25Z</time>
      </trkpt>
      <trkpt lat="46.0042" lon="6.69088">
        <ele>1588.24</ele>
        <time>2021-03-31T11:37:41Z</time>
      </trkpt>
      <trkpt lat="46.00425" lon="6.69065">
        <ele>1586.79</ele>
        <time>2021-03-31T11:37:57Z</time>
      </trkpt>
      <trkpt lat="46.00427" lon="6.69036">
        <ele>1584.87</ele>
        <time>2021-03-31T11:38:16Z</time>
      </trkpt>
      <trkpt lat="46.00425" lon="6.69034">
        <ele>1584.87</ele>
        <time>2021-03-31T11:38:31Z</time>
      </trkpt>
      <trkpt lat="46.00424" lon="6.69032">
        <ele>1584.39</ele>
        <time>2021-03-31T11:38:54Z</time>
      </trkpt>
      <trkpt lat="46.00423" lon="6.69031">
        <ele>1584.39</ele>
        <time>2021-03-31T11:39:16Z</time>
      </trkpt>
      <trkpt lat="46.00422" lon="6.69035">
        <ele>1584.39</ele>
        <time>2021-03-31T11:39:34Z</time>
      </trkpt>
      <trkpt lat="46.00425" lon="6.69035">
        <ele>1583.91</ele>
        <time>2021-03-31T11:39:51Z</time>
      </trkpt>
      <trkpt lat="46.00425" lon="6.69034">
        <ele>1583.91</ele>
        <time>2021-03-31T11:40:02Z</time>
      </trkpt>
      <trkpt lat="46.00425" lon="6.69032">
        <ele>1583.91</ele>
        <time>2021-03-31T11:40:24Z</time>
      </trkpt>
      <trkpt lat="46.00426" lon="6.69035">
        <ele>1583.43</ele>
        <time>2021-03-31T11:40:37Z</time>
      </trkpt>
      <trkpt lat="46.00426" lon="6.69034">
        <ele>1583.43</ele>
        <time>2021-03-31T11:40:55Z</time>
      </trkpt>
      <trkpt lat="46.00427" lon="6.69036">
        <ele>1583.43</ele>
        <time>2021-03-31T11:41:07Z</time>
      </trkpt>
    </trkseg>
  </trk>
</gpx>